Time,TemperatureF,DewpointF,PressureIn,WindDirection,WindDirectionDegrees,WindSpeedMPH,WindSpeedGustMPH,Humidity,HourlyPrecipIn,Conditions,Clouds,dailyrainin,SoftwareType,DateUTC
2013-03-18 00:02:00,31.2,13.3,29.47,North,355,5.0,5.0,47,0.00,,---,0.00,VWS V14.01,2013-03-18 06:02:00,
2013-03-18 00:04:00,31.2,13.3,29.47,North,355,5.0,6.0,47,0.00,,---,0.00,VWS V14.01,2013-03-18 06:04:00,
2013-03-18 00:07:00,31.2,12.8,29.47,North,355,1.0,1.0,46,0.00,,---,0.00,VWS V14.01,2013-03-18 06:07:00,
2013-03-18 00:09:00,31.2,12.8,29.47,North,355,0.0,0.0,46,0.00,,---,0.00,VWS V14.01,2013-03-18 06:09:00,
2013-03-18 00:12:00,31.2,13.3,29.47,North,355,0.0,0.0,47,0.00,,---,0.00,VWS V14.01,2013-03-18 06:12:00,
2013-03-18 00:14:00,31.1,12.8,29.47,North,355,0.0,0.0,46,0.00,,---,0.00,VWS V14.01,2013-03-18 06:14:00,
2013-03-18 00:15:00,31.1,12.8,29.47,North,355,0.0,0.0,46,0.00,,---,0.00,VWS V14.01,2013-03-18 06:15:00,
2013-03-18 00:17:00,31.0,13.1,29.48,North,355,0.0,0.0,47,0.00,,---,0.00,VWS V14.01,2013-03-18 06:17:00,
2013-03-18 00:19:00,31.0,13.1,29.47,North,355,0.0,0.0,47,0.00,,---,0.00,VWS V14.01,2013-03-18 06:19:00,
2013-03-18 00:20:00,30.9,13.1,29.47,North,355,0.0,0.0,47,0.00,,---,0.00,VWS V14.01,2013-03-18 06:20:00,
2013-03-18 00:22:00,30.9,13.1,29.48,North,355,0.0,0.0,47,0.00,,---,0.00,VWS V14.01,2013-03-18 06:22:00,
2013-03-18 00:24:00,30.8,13.4,29.47,North,355,1.0,4.0,48,0.00,,---,0.00,VWS V14.01,2013-03-18 06:24:00,
2013-03-18 00:26:00,30.8,13.0,29.47,North,355,0.0,0.0,47,0.00,,---,0.00,VWS V14.01,2013-03-18 06:26:00,
2013-03-18 00:27:00,30.8,13.0,29.47,North,355,2.0,2.0,47,0.00,,---,0.00,VWS V14.01,2013-03-18 06:27:00,
2013-03-18 00:28:00,30.8,13.0,29.47,North,355,1.0,3.0,47,0.00,,---,0.00,VWS V14.01,2013-03-18 06:28:00,
2013-03-18 00:29:00,30.8,13.0,29.47,North,355,0.0,0.0,47,0.00,,---,0.00,VWS V14.01,2013-03-18 06:29:00,
2013-03-18 00:31:00,30.7,12.9,29.48,North,355,0.0,0.0,47,0.00,,---,0.00,VWS V14.01,2013-03-18 06:31:00,
2013-03-18 00:32:00,30.6,12.8,29.48,North,355,0.0,0.0,47,0.00,,---,0.00,VWS V14.01,2013-03-18 06:32:00,
2013-03-18 00:33:00,30.7,12.9,29.48,North,355,0.0,0.0,47,0.00,,---,0.00,VWS V14.01,2013-03-18 06:33:00,
2013-03-18 00:34:00,30.6,13.3,29.48,North,355,0.0,0.0,48,0.00,,---,0.00,VWS V14.01,2013-03-18 06:34:00,
2013-03-18 00:36:00,30.6,13.3,29.48,North,355,2.0,2.0,48,0.00,,---,0.00,VWS V14.01,2013-03-18 06:36:00,
2013-03-18 00:37:00,30.6,13.7,29.48,North,355,0.0,6.0,49,0.00,,---,0.00,VWS V14.01,2013-03-18 06:37:00,
2013-03-18 00:38:00,30.6,13.7,29.48,North,355,0.0,6.0,49,0.00,,---,0.00,VWS V14.01,2013-03-18 06:38:00,
2013-03-18 00:40:00,30.5,14.1,29.48,North,355,0.0,0.0,50,0.00,,---,0.00,VWS V14.01,2013-03-18 06:40:00,
2013-03-18 00:41:00,30.4,14.4,29.48,North,355,6.0,6.0,51,0.00,,---,0.00,VWS V14.01,2013-03-18 06:41:00,
2013-03-18 00:43:00,30.1,14.6,29.48,North,355,1.0,7.0,52,0.00,,---,0.00,VWS V14.01,2013-03-18 06:43:00,
2013-03-18 00:46:00,29.7,14.7,29.48,North,355,4.0,4.0,53,0.00,,---,0.00,VWS V14.01,2013-03-18 06:46:00,
2013-03-18 00:48:00,29.5,14.5,29.48,North,355,0.0,0.0,53,0.00,,---,0.00,VWS V14.01,2013-03-18 06:48:00,
2013-03-18 00:51:00,29.2,14.2,29.48,North,355,0.0,0.0,53,0.00,,---,0.00,VWS V14.01,2013-03-18 06:51:00,
2013-03-18 00:52:00,29.2,14.2,29.48,North,355,0.0,0.0,53,0.00,,---,0.00,VWS V14.01,2013-03-18 06:52:00,
2013-03-18 00:53:00,29.1,14.5,29.48,North,355,0.0,0.0,54,0.00,,---,0.00,VWS V14.01,2013-03-18 06:53:00,
2013-03-18 00:56:00,28.9,13.9,29.48,North,355,0.0,0.0,53,0.00,,---,0.00,VWS V14.01,2013-03-18 06:56:00,
2013-03-18 00:57:00,28.9,14.4,29.48,North,355,0.0,0.0,54,0.00,,---,0.00,VWS V14.01,2013-03-18 06:57:00,
2013-03-18 00:58:00,28.9,14.4,29.47,North,355,2.0,4.0,54,0.00,,---,0.00,VWS V14.01,2013-03-18 06:58:00,
2013-03-18 01:02:00,29.1,14.1,29.48,North,355,0.0,0.0,53,0.00,,---,0.00,VWS V14.01,2013-03-18 07:02:00,
2013-03-18 01:03:00,29.2,13.8,29.48,North,355,0.0,0.0,52,0.00,,---,0.00,VWS V14.01,2013-03-18 07:03:00,
2013-03-18 01:04:00,29.2,13.8,29.48,North,355,0.0,0.0,52,0.00,,---,0.00,VWS V14.01,2013-03-18 07:04:00,
2013-03-18 01:07:00,29.3,14.3,29.48,North,355,0.0,2.0,53,0.00,,---,0.00,VWS V14.01,2013-03-18 07:07:00,
2013-03-18 01:08:00,29.3,14.7,29.48,North,355,0.0,2.0,54,0.00,,---,0.00,VWS V14.01,2013-03-18 07:08:00,
2013-03-18 01:09:00,29.3,15.1,29.48,North,355,0.0,2.0,55,0.00,,---,0.00,VWS V14.01,2013-03-18 07:09:00,
2013-03-18 01:12:00,29.1,15.0,29.48,North,355,0.0,1.0,55,0.00,,---,0.00,VWS V14.01,2013-03-18 07:12:00,
2013-03-18 01:13:00,29.1,15.0,29.48,North,355,3.0,6.0,55,0.00,,---,0.00,VWS V14.01,2013-03-18 07:13:00,
2013-03-18 01:14:00,29.1,14.1,29.48,North,355,0.0,1.0,53,0.00,,---,0.00,VWS V14.01,2013-03-18 07:14:00,
2013-03-18 01:17:00,29.3,13.9,29.48,North,355,0.0,2.0,52,0.00,,---,0.00,VWS V14.01,2013-03-18 07:17:00,
2013-03-18 01:18:00,29.3,13.9,29.48,North,355,0.0,1.0,52,0.00,,---,0.00,VWS V14.01,2013-03-18 07:18:00,
2013-03-18 01:19:00,29.4,14.4,29.48,North,355,0.0,0.0,53,0.00,,---,0.00,VWS V14.01,2013-03-18 07:19:00,
2013-03-18 01:22:00,29.6,14.1,29.48,North,355,0.0,0.0,52,0.00,,---,0.00,VWS V14.01,2013-03-18 07:22:00,
2013-03-18 01:23:00,29.6,14.1,29.48,North,355,0.0,0.0,52,0.00,,---,0.00,VWS V14.01,2013-03-18 07:23:00,
2013-03-18 01:24:00,29.6,14.1,29.48,North,355,0.0,0.0,52,0.00,,---,0.00,VWS V14.01,2013-03-18 07:24:00,
2013-03-18 01:27:00,29.7,14.7,29.48,North,355,5.0,8.0,53,0.00,,---,0.00,VWS V14.01,2013-03-18 07:27:00,
2013-03-18 01:28:00,29.7,14.7,29.48,North,355,4.0,5.0,53,0.00,,---,0.00,VWS V14.01,2013-03-18 07:28:00,
2013-03-18 01:29:00,29.6,15.0,29.48,North,355,0.0,0.0,54,0.00,,---,0.00,VWS V14.01,2013-03-18 07:29:00,
2013-03-18 01:32:00,29.4,14.4,29.48,North,355,11.0,11.0,53,0.00,,---,0.00,VWS V14.01,2013-03-18 07:32:00,
2013-03-18 01:33:00,29.1,14.5,29.48,North,350,9.0,13.0,54,0.00,,---,0.00,VWS V14.01,2013-03-18 07:33:00,
2013-03-18 01:34:00,28.8,14.3,29.49,North,351,7.0,11.0,54,0.00,,---,0.00,VWS V14.01,2013-03-18 07:34:00,
2013-03-18 01:37:00,27.8,14.2,29.49,North,351,7.0,8.0,56,0.00,,---,0.00,VWS V14.01,2013-03-18 07:37:00,
2013-03-18 01:38:00,27.5,14.3,29.50,North,351,6.0,7.0,57,0.00,,---,0.00,VWS V14.01,2013-03-18 07:38:00,
2013-03-18 01:39:00,27.5,14.3,29.50,North,351,7.0,7.0,57,0.00,,---,0.00,VWS V14.01,2013-03-18 07:39:00,
2013-03-18 01:43:00,26.7,13.5,29.50,North,351,1.0,1.0,57,0.00,,---,0.00,VWS V14.01,2013-03-18 07:43:00,
2013-03-18 01:44:00,26.5,13.7,29.50,North,351,0.0,2.0,58,0.00,,---,0.00,VWS V14.01,2013-03-18 07:44:00,
2013-03-18 01:48:00,25.9,13.2,29.50,North,351,1.0,2.0,58,0.00,,---,0.00,VWS V14.01,2013-03-18 07:48:00,
2013-03-18 01:49:00,25.7,13.0,29.50,North,351,0.0,2.0,58,0.00,,---,0.00,VWS V14.01,2013-03-18 07:49:00,
2013-03-18 01:53:00,25.1,13.2,29.50,North,355,0.0,2.0,60,0.00,,---,0.00,VWS V14.01,2013-03-18 07:53:00,
2013-03-18 01:54:00,24.9,13.0,29.50,North,355,1.0,2.0,60,0.00,,---,0.00,VWS V14.01,2013-03-18 07:54:00,
2013-03-18 01:58:00,24.5,13.0,29.50,North,355,2.0,2.0,61,0.00,,---,0.00,VWS V14.01,2013-03-18 07:58:00,
2013-03-18 01:59:00,24.4,12.9,29.50,North,355,1.0,4.0,61,0.00,,---,0.00,VWS V14.01,2013-03-18 07:59:00,
2013-03-18 02:03:00,24.2,13.1,29.51,North,355,0.0,0.0,62,0.00,,---,0.00,VWS V14.01,2013-03-18 08:03:00,
2013-03-18 02:04:00,24.1,13.0,29.51,North,355,0.0,0.0,62,0.00,,---,0.00,VWS V14.01,2013-03-18 08:04:00,
2013-03-18 02:08:00,23.5,12.8,29.51,NNE,15,2.0,6.0,63,0.00,,---,0.00,VWS V14.01,2013-03-18 08:08:00,
2013-03-18 02:09:00,23.4,12.7,29.51,NNE,18,5.0,6.0,63,0.00,,---,0.00,VWS V14.01,2013-03-18 08:09:00,
2013-03-18 02:10:00,23.3,12.6,29.51,NNE,18,2.0,4.0,63,0.00,,---,0.00,VWS V14.01,2013-03-18 08:10:00,
2013-03-18 02:13:00,22.9,12.6,29.51,NNE,18,6.0,6.0,64,0.00,,---,0.00,VWS V14.01,2013-03-18 08:13:00,
2013-03-18 02:14:00,22.9,12.6,29.51,NNE,12,3.0,4.0,64,0.00,,---,0.00,VWS V14.01,2013-03-18 08:14:00,
2013-03-18 02:15:00,22.6,12.3,29.51,NNE,12,0.0,0.0,64,0.00,,---,0.00,VWS V14.01,2013-03-18 08:15:00,
2013-03-18 02:18:00,22.3,12.0,29.51,NNE,12,0.0,0.0,64,0.00,,---,0.00,VWS V14.01,2013-03-18 08:18:00,
2013-03-18 02:19:00,22.2,11.9,29.51,NNE,12,0.0,0.0,64,0.00,,---,0.00,VWS V14.01,2013-03-18 08:19:00,
2013-03-18 02:20:00,22.1,12.1,29.51,NNE,12,4.0,4.0,65,0.00,,---,0.00,VWS V14.01,2013-03-18 08:20:00,
2013-03-18 02:23:00,21.8,12.2,29.52,NNE,12,1.0,2.0,66,0.00,,---,0.00,VWS V14.01,2013-03-18 08:23:00,
2013-03-18 02:24:00,21.8,12.2,29.51,NNE,12,0.0,1.0,66,0.00,,---,0.00,VWS V14.01,2013-03-18 08:24:00,
2013-03-18 02:25:00,21.6,12.0,29.51,NNE,12,0.0,0.0,66,0.00,,---,0.00,VWS V14.01,2013-03-18 08:25:00,
2013-03-18 02:28:00,21.4,11.8,29.52,NNE,12,0.0,2.0,66,0.00,,---,0.00,VWS V14.01,2013-03-18 08:28:00,
2013-03-18 02:29:00,21.3,11.7,29.52,NNE,12,0.0,0.0,66,0.00,,---,0.00,VWS V14.01,2013-03-18 08:29:00,
2013-03-18 02:30:00,21.3,11.7,29.52,NNE,12,0.0,5.0,66,0.00,,---,0.00,VWS V14.01,2013-03-18 08:30:00,
2013-03-18 02:34:00,20.9,11.7,29.52,NNE,12,0.0,0.0,67,0.00,,---,0.00,VWS V14.01,2013-03-18 08:34:00,
2013-03-18 02:35:00,20.8,11.6,29.52,NNE,12,5.0,5.0,67,0.00,,---,0.00,VWS V14.01,2013-03-18 08:35:00,
2013-03-18 02:39:00,20.3,11.4,29.52,NNE,12,2.0,4.0,68,0.00,,---,0.00,VWS V14.01,2013-03-18 08:39:00,
2013-03-18 02:40:00,20.3,11.4,29.52,NNE,12,7.0,7.0,68,0.00,,---,0.00,VWS V14.01,2013-03-18 08:40:00,
2013-03-18 02:41:00,20.2,11.7,29.52,NNE,12,2.0,2.0,69,0.00,,---,0.00,VWS V14.01,2013-03-18 08:41:00,
2013-03-18 02:44:00,19.9,11.4,29.52,NNE,12,1.0,4.0,69,0.00,,---,0.00,VWS V14.01,2013-03-18 08:44:00,
2013-03-18 02:45:00,19.7,11.2,29.52,NNE,12,0.0,0.0,69,0.00,,---,0.00,VWS V14.01,2013-03-18 08:45:00,
2013-03-18 02:46:00,19.7,11.2,29.52,NNE,12,0.0,0.0,69,0.00,,---,0.00,VWS V14.01,2013-03-18 08:46:00,
2013-03-18 02:49:00,19.7,11.2,29.52,NNE,12,4.0,5.0,69,0.00,,---,0.00,VWS V14.01,2013-03-18 08:49:00,
2013-03-18 02:51:00,19.5,11.3,29.53,NNE,12,5.0,5.0,70,0.00,,---,0.00,VWS V14.01,2013-03-18 08:51:00,
2013-03-18 02:54:00,19.4,13.4,29.53,North,11,2.0,9.0,77,0.00,,---,0.00,VWS V14.01,2013-03-18 08:54:00,
2013-03-18 02:55:00,19.3,11.1,29.53,North,11,0.0,6.0,70,0.00,,---,0.00,VWS V14.01,2013-03-18 08:55:00,
2013-03-18 02:56:00,19.2,11.0,29.53,North,11,0.0,6.0,70,0.00,,---,0.00,VWS V14.01,2013-03-18 08:56:00,
2013-03-18 02:59:00,19.0,10.8,29.53,North,11,1.0,5.0,70,0.00,,---,0.00,VWS V14.01,2013-03-18 08:59:00,
2013-03-18 03:01:00,19.0,10.8,29.53,North,11,1.0,5.0,70,0.00,,---,0.00,VWS V14.01,2013-03-18 09:01:00,
2013-03-18 03:04:00,18.7,10.6,29.52,North,11,0.0,0.0,70,0.00,,---,0.00,VWS V14.01,2013-03-18 09:04:00,
2013-03-18 03:06:00,18.6,10.8,29.53,North,11,8.0,8.0,71,0.00,,---,0.00,VWS V14.01,2013-03-18 09:06:00,
2013-03-18 03:07:00,18.6,10.8,29.53,North,11,8.0,8.0,71,0.00,,---,0.00,VWS V14.01,2013-03-18 09:07:00,
2013-03-18 03:09:00,18.5,10.7,29.52,North,11,0.0,0.0,71,0.00,,---,0.00,VWS V14.01,2013-03-18 09:09:00,
2013-03-18 03:11:00,18.4,10.6,29.52,North,11,3.0,6.0,71,0.00,,---,0.00,VWS V14.01,2013-03-18 09:11:00,
2013-03-18 03:12:00,18.4,10.6,29.52,North,11,4.0,7.0,71,0.00,,---,0.00,VWS V14.01,2013-03-18 09:12:00,
2013-03-18 03:14:00,18.2,10.4,29.52,North,11,0.0,0.0,71,0.00,,---,0.00,VWS V14.01,2013-03-18 09:14:00,
2013-03-18 03:16:00,18.1,10.3,29.52,North,5,5.0,9.0,71,0.00,,---,0.00,VWS V14.01,2013-03-18 09:16:00,
2013-03-18 03:17:00,18.0,10.2,29.53,North,5,2.0,6.0,71,0.00,,---,0.00,VWS V14.01,2013-03-18 09:17:00,
2013-03-18 03:19:00,17.9,10.1,29.52,North,5,5.0,7.0,71,0.00,,---,0.00,VWS V14.01,2013-03-18 09:19:00,
2013-03-18 03:21:00,17.7,10.2,29.53,North,5,2.0,6.0,72,0.00,,---,0.00,VWS V14.01,2013-03-18 09:21:00,
2013-03-18 03:22:00,17.7,10.2,29.53,North,5,2.0,2.0,72,0.00,,---,0.00,VWS V14.01,2013-03-18 09:22:00,
2013-03-18 03:23:00,17.7,10.2,29.53,North,5,0.0,6.0,72,0.00,,---,0.00,VWS V14.01,2013-03-18 09:23:00,
2013-03-18 03:24:00,17.5,9.7,29.53,North,5,4.0,6.0,71,0.00,,---,0.00,VWS V14.01,2013-03-18 09:24:00,
2013-03-18 03:27:00,17.3,9.5,29.53,North,5,5.0,7.0,71,0.00,,---,0.00,VWS V14.01,2013-03-18 09:27:00,
2013-03-18 03:28:00,17.3,9.8,29.53,North,360,4.0,5.0,72,0.00,,---,0.00,VWS V14.01,2013-03-18 09:28:00,
2013-03-18 03:30:00,17.1,9.6,29.53,North,360,0.0,4.0,72,0.00,,---,0.00,VWS V14.01,2013-03-18 09:30:00,
2013-03-18 03:32:00,17.0,9.6,29.53,North,360,2.0,2.0,72,0.00,,---,0.00,VWS V14.01,2013-03-18 09:32:00,
2013-03-18 03:33:00,17.0,9.6,29.53,North,360,3.0,5.0,72,0.00,,---,0.00,VWS V14.01,2013-03-18 09:33:00,
2013-03-18 03:35:00,16.8,9.4,29.53,North,360,2.0,2.0,72,0.00,,---,0.00,VWS V14.01,2013-03-18 09:35:00,
2013-03-18 03:37:00,16.7,8.9,29.53,North,360,5.0,5.0,71,0.00,,---,0.00,VWS V14.01,2013-03-18 09:37:00,
2013-03-18 03:38:00,16.7,8.9,29.54,North,360,2.0,4.0,71,0.00,,---,0.00,VWS V14.01,2013-03-18 09:38:00,
2013-03-18 03:41:00,16.6,9.2,29.53,North,360,0.0,0.0,72,0.00,,---,0.00,VWS V14.01,2013-03-18 09:41:00,
2013-03-18 03:42:00,16.5,9.1,29.54,North,360,1.0,6.0,72,0.00,,---,0.00,VWS V14.01,2013-03-18 09:42:00,
2013-03-18 03:43:00,16.5,9.1,29.54,North,360,4.0,9.0,72,0.00,,---,0.00,VWS V14.01,2013-03-18 09:43:00,
2013-03-18 03:46:00,16.4,9.0,29.54,North,360,1.0,5.0,72,0.00,,---,0.00,VWS V14.01,2013-03-18 09:46:00,
2013-03-18 03:47:00,16.3,8.9,29.53,North,360,4.0,5.0,72,0.00,,---,0.00,VWS V14.01,2013-03-18 09:47:00,
2013-03-18 03:48:00,16.3,8.9,29.54,North,360,0.0,5.0,72,0.00,,---,0.00,VWS V14.01,2013-03-18 09:48:00,
2013-03-18 03:51:00,16.2,8.5,29.54,North,355,7.0,10.0,71,0.00,,---,0.00,VWS V14.01,2013-03-18 09:51:00,
2013-03-18 03:52:00,16.1,8.4,29.53,North,355,4.0,5.0,71,0.00,,---,0.00,VWS V14.01,2013-03-18 09:52:00,
2013-03-18 03:53:00,16.1,8.4,29.54,North,355,4.0,4.0,71,0.00,,---,0.00,VWS V14.01,2013-03-18 09:53:00,
2013-03-18 03:56:00,15.9,8.2,29.54,North,355,2.0,7.0,71,0.00,,---,0.00,VWS V14.01,2013-03-18 09:56:00,
2013-03-18 03:57:00,15.9,8.2,29.54,North,355,2.0,4.0,71,0.00,,---,0.00,VWS V14.01,2013-03-18 09:57:00,
2013-03-18 03:58:00,15.9,8.5,29.54,North,355,1.0,4.0,72,0.00,,---,0.00,VWS V14.01,2013-03-18 09:58:00,
2013-03-18 04:02:00,15.8,8.1,29.55,North,355,0.0,2.0,71,0.00,,---,0.00,VWS V14.01,2013-03-18 10:02:00,
2013-03-18 04:03:00,15.8,8.1,29.55,North,355,0.0,0.0,71,0.00,,---,0.00,VWS V14.01,2013-03-18 10:03:00,
2013-03-18 04:07:00,15.6,7.9,29.54,North,355,0.0,4.0,71,0.00,,---,0.00,VWS V14.01,2013-03-18 10:07:00,
2013-03-18 04:08:00,15.6,7.9,29.54,North,355,0.0,0.0,71,0.00,,---,0.00,VWS V14.01,2013-03-18 10:08:00,
2013-03-18 04:12:00,15.5,7.8,29.54,North,355,0.0,0.0,71,0.00,,---,0.00,VWS V14.01,2013-03-18 10:12:00,
2013-03-18 04:13:00,15.5,7.8,29.54,North,355,0.0,0.0,71,0.00,,---,0.00,VWS V14.01,2013-03-18 10:13:00,
2013-03-18 04:17:00,15.5,7.8,29.54,North,355,0.0,0.0,71,0.00,,---,0.00,VWS V14.01,2013-03-18 10:17:00,
2013-03-18 04:18:00,15.5,7.8,29.54,North,355,0.0,0.0,71,0.00,,---,0.00,VWS V14.01,2013-03-18 10:18:00,
2013-03-18 04:22:00,15.5,7.8,29.55,North,355,0.0,0.0,71,0.00,,---,0.00,VWS V14.01,2013-03-18 10:22:00,
2013-03-18 04:23:00,15.4,7.7,29.54,North,355,0.0,0.0,71,0.00,,---,0.00,VWS V14.01,2013-03-18 10:23:00,
2013-03-18 04:27:00,15.5,8.1,29.55,North,355,0.0,0.0,72,0.00,,---,0.00,VWS V14.01,2013-03-18 10:27:00,
2013-03-18 04:28:00,15.4,7.7,29.55,North,355,0.0,0.0,71,0.00,,---,0.00,VWS V14.01,2013-03-18 10:28:00,
2013-03-18 04:32:00,15.5,8.1,29.54,North,355,0.0,0.0,72,0.00,,---,0.00,VWS V14.01,2013-03-18 10:32:00,
2013-03-18 04:33:00,15.5,8.1,29.55,North,355,0.0,0.0,72,0.00,,---,0.00,VWS V14.01,2013-03-18 10:33:00,
2013-03-18 04:37:00,15.5,8.1,29.54,North,355,0.0,0.0,72,0.00,,---,0.00,VWS V14.01,2013-03-18 10:37:00,
2013-03-18 04:38:00,15.5,8.1,29.55,North,355,0.0,0.0,72,0.00,,---,0.00,VWS V14.01,2013-03-18 10:38:00,
2013-03-18 04:39:00,15.5,8.1,29.55,North,355,0.0,0.0,72,0.00,,---,0.00,VWS V14.01,2013-03-18 10:39:00,
2013-03-18 04:42:00,15.5,8.1,29.55,North,355,0.0,0.0,72,0.00,,---,0.00,VWS V14.01,2013-03-18 10:42:00,
2013-03-18 04:43:00,15.5,7.8,29.55,North,355,0.0,0.0,71,0.00,,---,0.00,VWS V14.01,2013-03-18 10:43:00,
2013-03-18 04:44:00,15.4,8.0,29.55,North,355,0.0,0.0,72,0.00,,---,0.00,VWS V14.01,2013-03-18 10:44:00,
2013-03-18 04:47:00,15.4,7.7,29.55,North,355,0.0,0.0,71,0.00,,---,0.00,VWS V14.01,2013-03-18 10:47:00,
2013-03-18 04:48:00,15.4,8.0,29.55,North,355,0.0,0.0,72,0.00,,---,0.00,VWS V14.01,2013-03-18 10:48:00,
2013-03-18 04:49:00,15.4,8.0,29.55,North,355,0.0,0.0,72,0.00,,---,0.00,VWS V14.01,2013-03-18 10:49:00,
2013-03-18 04:52:00,15.3,7.9,29.55,North,355,0.0,0.0,72,0.00,,---,0.00,VWS V14.01,2013-03-18 10:52:00,
2013-03-18 04:53:00,15.3,7.9,29.54,North,355,0.0,0.0,72,0.00,,---,0.00,VWS V14.01,2013-03-18 10:53:00,
2013-03-18 04:54:00,15.3,7.9,29.54,North,355,0.0,0.0,72,0.00,,---,0.00,VWS V14.01,2013-03-18 10:54:00,
2013-03-18 04:57:00,15.3,7.9,29.55,North,355,0.0,0.0,72,0.00,,---,0.00,VWS V14.01,2013-03-18 10:57:00,
2013-03-18 04:59:00,15.3,7.9,29.55,North,355,0.0,0.0,72,0.00,,---,0.00,VWS V14.01,2013-03-18 10:59:00,
2013-03-18 05:02:00,15.2,7.8,29.55,North,355,0.0,0.0,72,0.00,,---,0.00,VWS V14.01,2013-03-18 11:02:00,
2013-03-18 05:04:00,15.1,7.7,29.55,North,355,0.0,0.0,72,0.00,,---,0.00,VWS V14.01,2013-03-18 11:04:00,
2013-03-18 05:07:00,15.0,7.6,29.55,North,355,0.0,0.0,72,0.00,,---,0.00,VWS V14.01,2013-03-18 11:07:00,
2013-03-18 05:09:00,15.0,7.3,29.55,North,355,0.0,0.0,71,0.00,,---,0.00,VWS V14.01,2013-03-18 11:09:00,
2013-03-18 05:13:00,14.9,7.5,29.55,North,355,0.0,0.0,72,0.00,,---,0.00,VWS V14.01,2013-03-18 11:13:00,
2013-03-18 05:14:00,14.9,7.5,29.55,North,355,0.0,0.0,72,0.00,,---,0.00,VWS V14.01,2013-03-18 11:14:00,
2013-03-18 05:18:00,14.9,7.5,29.55,North,355,0.0,0.0,72,0.00,,---,0.00,VWS V14.01,2013-03-18 11:18:00,
2013-03-18 05:19:00,14.8,7.4,29.55,North,355,0.0,0.0,72,0.00,,---,0.00,VWS V14.01,2013-03-18 11:19:00,
2013-03-18 05:20:00,14.8,7.4,29.55,North,355,0.0,0.0,72,0.00,,---,0.00,VWS V14.01,2013-03-18 11:20:00,
2013-03-18 05:23:00,14.8,7.4,29.55,North,355,0.0,1.0,72,0.00,,---,0.00,VWS V14.01,2013-03-18 11:23:00,
2013-03-18 05:24:00,14.8,7.4,29.55,North,355,0.0,1.0,72,0.00,,---,0.00,VWS V14.01,2013-03-18 11:24:00,
2013-03-18 05:25:00,14.7,7.3,29.55,North,355,0.0,0.0,72,0.00,,---,0.00,VWS V14.01,2013-03-18 11:25:00,
2013-03-18 05:28:00,14.7,7.3,29.55,North,355,0.0,0.0,72,0.00,,---,0.00,VWS V14.01,2013-03-18 11:28:00,
2013-03-18 05:29:00,14.7,7.3,29.55,North,355,0.0,0.0,72,0.00,,---,0.00,VWS V14.01,2013-03-18 11:29:00,
2013-03-18 05:30:00,14.6,7.5,29.56,North,355,0.0,0.0,73,0.00,,---,0.00,VWS V14.01,2013-03-18 11:30:00,
2013-03-18 05:33:00,14.6,7.5,29.56,North,355,0.0,0.0,73,0.00,,---,0.00,VWS V14.01,2013-03-18 11:33:00,
2013-03-18 05:34:00,14.5,7.4,29.56,North,355,0.0,0.0,73,0.00,,---,0.00,VWS V14.01,2013-03-18 11:34:00,
2013-03-18 05:36:00,14.6,7.5,29.56,North,355,2.0,3.0,73,0.00,,---,0.00,VWS V14.01,2013-03-18 11:36:00,
2013-03-18 05:38:00,14.5,7.4,29.56,North,355,0.0,1.0,73,0.00,,---,0.00,VWS V14.01,2013-03-18 11:38:00,
2013-03-18 05:39:00,14.5,7.4,29.56,North,355,0.0,0.0,73,0.00,,---,0.00,VWS V14.01,2013-03-18 11:39:00,
2013-03-18 05:40:00,14.5,7.4,29.56,North,355,0.0,0.0,73,0.00,,---,0.00,VWS V14.01,2013-03-18 11:40:00,
2013-03-18 05:41:00,14.5,7.4,29.56,North,355,0.0,0.0,73,0.00,,---,0.00,VWS V14.01,2013-03-18 11:41:00,
2013-03-18 05:43:00,14.6,7.5,29.56,North,355,1.0,3.0,73,0.00,,---,0.00,VWS V14.01,2013-03-18 11:43:00,
2013-03-18 05:44:00,14.6,7.5,29.57,North,355,0.0,0.0,73,0.00,,---,0.00,VWS V14.01,2013-03-18 11:44:00,
2013-03-18 05:46:00,14.6,7.5,29.57,North,355,0.0,0.0,73,0.00,,---,0.00,VWS V14.01,2013-03-18 11:46:00,
2013-03-18 05:48:00,14.7,7.6,29.57,North,355,1.0,1.0,73,0.00,,---,0.00,VWS V14.01,2013-03-18 11:48:00,
2013-03-18 05:49:00,14.7,7.6,29.57,North,355,2.0,2.0,73,0.00,,---,0.00,VWS V14.01,2013-03-18 11:49:00,
2013-03-18 05:51:00,14.8,7.7,29.57,North,355,0.0,0.0,73,0.00,,---,0.00,VWS V14.01,2013-03-18 11:51:00,
2013-03-18 05:53:00,14.9,7.8,29.57,North,355,0.0,2.0,73,0.00,,---,0.00,VWS V14.01,2013-03-18 11:53:00,
2013-03-18 05:54:00,14.9,7.8,29.57,North,355,3.0,3.0,73,0.00,,---,0.00,VWS V14.01,2013-03-18 11:54:00,
2013-03-18 05:56:00,15.0,7.6,29.57,North,355,0.0,0.0,72,0.00,,---,0.00,VWS V14.01,2013-03-18 11:56:00,
2013-03-18 05:57:00,15.1,7.7,29.57,North,355,2.0,2.0,72,0.00,,---,0.00,VWS V14.01,2013-03-18 11:57:00,
2013-03-18 05:59:00,15.2,7.8,29.57,North,355,3.0,3.0,72,0.00,,---,0.00,VWS V14.01,2013-03-18 11:59:00,
2013-03-18 06:01:00,15.2,7.8,29.57,North,355,0.0,0.0,72,0.00,,---,0.00,VWS V14.01,2013-03-18 12:01:00,
2013-03-18 06:02:00,15.3,7.6,29.57,North,355,6.0,6.0,71,0.00,,---,0.00,VWS V14.01,2013-03-18 12:02:00,
2013-03-18 06:04:00,15.3,7.6,29.57,North,355,0.0,2.0,71,0.00,,---,0.00,VWS V14.01,2013-03-18 12:04:00,
2013-03-18 06:05:00,15.3,7.6,29.57,North,355,0.0,2.0,71,0.00,,---,0.00,VWS V14.01,2013-03-18 12:05:00,
2013-03-18 06:07:00,15.3,7.3,29.58,North,355,0.0,0.0,70,0.00,,---,0.00,VWS V14.01,2013-03-18 12:07:00,
2013-03-18 06:10:00,15.3,7.3,29.58,North,355,4.0,5.0,70,0.00,,---,0.00,VWS V14.01,2013-03-18 12:10:00,
2013-03-18 06:12:00,15.3,7.3,29.58,North,355,1.0,1.0,70,0.00,,---,0.00,VWS V14.01,2013-03-18 12:12:00,
2013-03-18 06:15:00,15.3,7.3,29.58,North,355,1.0,6.0,70,0.00,,---,0.00,VWS V14.01,2013-03-18 12:15:00,
2013-03-18 06:17:00,15.3,7.3,29.58,North,355,5.0,6.0,70,0.00,,---,0.00,VWS V14.01,2013-03-18 12:17:00,
2013-03-18 06:18:00,15.3,7.3,29.58,North,355,3.0,6.0,70,0.00,,---,0.00,VWS V14.01,2013-03-18 12:18:00,
2013-03-18 06:20:00,15.4,7.4,29.59,North,355,0.0,3.0,70,0.00,,---,0.00,VWS V14.01,2013-03-18 12:20:00,
2013-03-18 06:22:00,15.4,7.4,29.58,North,355,1.0,5.0,70,0.00,,---,0.00,VWS V14.01,2013-03-18 12:22:00,
2013-03-18 06:23:00,15.4,7.1,29.58,North,355,4.0,6.0,69,0.00,,---,0.00,VWS V14.01,2013-03-18 12:23:00,
2013-03-18 06:25:00,15.4,7.1,29.59,North,355,0.0,0.0,69,0.00,,---,0.00,VWS V14.01,2013-03-18 12:25:00,
2013-03-18 06:27:00,15.3,6.7,29.59,North,355,0.0,0.0,68,0.00,,---,0.00,VWS V14.01,2013-03-18 12:27:00,
2013-03-18 06:28:00,15.3,6.7,29.59,North,355,0.0,0.0,68,0.00,,---,0.00,VWS V14.01,2013-03-18 12:28:00,
2013-03-18 06:30:00,15.2,6.6,29.59,North,355,0.0,0.0,68,0.00,,---,0.00,VWS V14.01,2013-03-18 12:30:00,
2013-03-18 06:31:00,15.2,6.6,29.59,North,355,0.0,0.0,68,0.00,,---,0.00,VWS V14.01,2013-03-18 12:31:00,
2013-03-18 06:32:00,15.1,6.5,29.58,North,355,0.0,0.0,68,0.00,,---,0.00,VWS V14.01,2013-03-18 12:32:00,
2013-03-18 06:33:00,15.1,6.5,29.58,North,355,0.0,0.0,68,0.00,,---,0.00,VWS V14.01,2013-03-18 12:33:00,
2013-03-18 06:35:00,15.0,6.4,29.59,North,355,0.0,0.0,68,0.00,,---,0.00,VWS V14.01,2013-03-18 12:35:00,
2013-03-18 06:36:00,15.0,6.4,29.59,North,355,0.0,0.0,68,0.00,,---,0.00,VWS V14.01,2013-03-18 12:36:00,
2013-03-18 06:37:00,14.9,6.3,29.59,North,355,0.0,5.0,68,0.00,,---,0.00,VWS V14.01,2013-03-18 12:37:00,
2013-03-18 06:38:00,14.9,6.3,29.59,North,355,0.0,5.0,68,0.00,,---,0.00,VWS V14.01,2013-03-18 12:38:00,
2013-03-18 06:40:00,14.8,6.2,29.59,North,355,2.0,2.0,68,0.00,,---,0.00,VWS V14.01,2013-03-18 12:40:00,
2013-03-18 06:41:00,14.8,6.2,29.59,North,355,0.0,2.0,68,0.00,,---,0.00,VWS V14.01,2013-03-18 12:41:00,
2013-03-18 06:42:00,14.7,6.1,29.59,North,355,0.0,0.0,68,0.00,,---,0.00,VWS V14.01,2013-03-18 12:42:00,
2013-03-18 06:43:00,14.7,6.1,29.59,North,355,0.0,0.0,68,0.00,,---,0.00,VWS V14.01,2013-03-18 12:43:00,
2013-03-18 06:46:00,14.6,6.0,29.59,North,355,0.0,0.0,68,0.00,,---,0.00,VWS V14.01,2013-03-18 12:46:00,
2013-03-18 06:47:00,14.6,6.0,29.59,North,355,2.0,3.0,68,0.00,,---,0.00,VWS V14.01,2013-03-18 12:47:00,
2013-03-18 06:48:00,14.6,6.0,29.59,North,355,0.0,2.0,68,0.00,,---,0.00,VWS V14.01,2013-03-18 12:48:00,
2013-03-18 06:51:00,14.6,6.0,29.59,North,355,0.0,0.0,68,0.00,,---,0.00,VWS V14.01,2013-03-18 12:51:00,
2013-03-18 06:53:00,14.5,5.9,29.59,North,355,0.0,0.0,68,0.00,,---,0.00,VWS V14.01,2013-03-18 12:53:00,
2013-03-18 06:56:00,14.5,5.9,29.59,North,355,0.0,0.0,68,0.00,,---,0.00,VWS V14.01,2013-03-18 12:56:00,
2013-03-18 06:57:00,14.5,5.9,29.59,North,355,0.0,0.0,68,0.00,,---,0.00,VWS V14.01,2013-03-18 12:57:00,
2013-03-18 06:58:00,14.5,5.9,29.59,North,355,0.0,0.0,68,0.00,,---,0.00,VWS V14.01,2013-03-18 12:58:00,
2013-03-18 07:01:00,14.5,5.9,29.60,North,355,0.0,0.0,68,0.00,,---,0.00,VWS V14.01,2013-03-18 13:01:00,
2013-03-18 07:02:00,14.5,5.9,29.60,North,355,0.0,0.0,68,0.00,,---,0.00,VWS V14.01,2013-03-18 13:02:00,
2013-03-18 07:03:00,14.5,5.9,29.60,North,355,0.0,0.0,68,0.00,,---,0.00,VWS V14.01,2013-03-18 13:03:00,
2013-03-18 07:06:00,14.5,5.9,29.60,North,355,0.0,1.0,68,0.00,,---,0.00,VWS V14.01,2013-03-18 13:06:00,
2013-03-18 07:07:00,14.5,5.9,29.60,North,355,0.0,1.0,68,0.00,,---,0.00,VWS V14.01,2013-03-18 13:07:00,
2013-03-18 07:08:00,14.5,5.9,29.60,North,355,0.0,0.0,68,0.00,,---,0.00,VWS V14.01,2013-03-18 13:08:00,
2013-03-18 07:12:00,14.4,5.8,29.60,North,355,0.0,0.0,68,0.00,,---,0.00,VWS V14.01,2013-03-18 13:12:00,
2013-03-18 07:13:00,14.4,6.1,29.60,North,355,0.0,0.0,69,0.00,,---,0.00,VWS V14.01,2013-03-18 13:13:00,
2013-03-18 07:17:00,14.3,6.0,29.60,North,355,0.0,0.0,69,0.00,,---,0.00,VWS V14.01,2013-03-18 13:17:00,
2013-03-18 07:18:00,14.3,6.0,29.60,North,355,2.0,2.0,69,0.00,,---,0.00,VWS V14.01,2013-03-18 13:18:00,
2013-03-18 07:19:00,14.3,6.0,29.60,North,355,2.0,2.0,69,0.00,,---,0.00,VWS V14.01,2013-03-18 13:19:00,
2013-03-18 07:22:00,14.2,5.9,29.60,North,355,2.0,3.0,69,0.00,,---,0.00,VWS V14.01,2013-03-18 13:22:00,
2013-03-18 07:23:00,14.2,5.9,29.61,North,355,0.0,0.0,69,0.00,,---,0.00,VWS V14.01,2013-03-18 13:23:00,
2013-03-18 07:24:00,14.2,5.9,29.61,North,355,0.0,0.0,69,0.00,,---,0.00,VWS V14.01,2013-03-18 13:24:00,
2013-03-18 07:27:00,14.3,6.0,29.61,North,355,0.0,0.0,69,0.00,,---,0.00,VWS V14.01,2013-03-18 13:27:00,
2013-03-18 07:29:00,14.3,6.0,29.61,North,355,2.0,4.0,69,0.00,,---,0.00,VWS V14.01,2013-03-18 13:29:00,
2013-03-18 07:32:00,14.4,6.1,29.61,North,355,4.0,4.0,69,0.00,,---,0.00,VWS V14.01,2013-03-18 13:32:00,
2013-03-18 07:34:00,14.4,6.4,29.62,North,355,4.0,4.0,70,0.00,,---,0.00,VWS V14.01,2013-03-18 13:34:00,
2013-03-18 07:37:00,14.7,6.7,29.62,North,355,1.0,2.0,70,0.00,,---,0.00,VWS V14.01,2013-03-18 13:37:00,
2013-03-18 07:39:00,14.9,6.9,29.62,North,355,0.0,1.0,70,0.00,,---,0.00,VWS V14.01,2013-03-18 13:39:00,
2013-03-18 07:42:00,15.2,7.2,29.63,North,355,0.0,0.0,70,0.00,,---,0.00,VWS V14.01,2013-03-18 13:42:00,
2013-03-18 07:44:00,15.4,7.4,29.63,North,355,4.0,4.0,70,0.00,,---,0.00,VWS V14.01,2013-03-18 13:44:00,
2013-03-18 07:47:00,15.9,7.5,29.63,North,355,0.0,0.0,69,0.00,,---,0.00,VWS V14.01,2013-03-18 13:47:00,
2013-03-18 07:49:00,16.2,7.8,29.63,North,355,3.0,4.0,69,0.00,,---,0.00,VWS V14.01,2013-03-18 13:49:00,
2013-03-18 07:52:00,16.7,8.0,29.63,North,355,0.0,2.0,68,0.00,,---,0.00,VWS V14.01,2013-03-18 13:52:00,
2013-03-18 07:54:00,17.0,7.6,29.63,North,355,0.0,0.0,66,0.00,,---,0.00,VWS V14.01,2013-03-18 13:54:00,
2013-03-18 07:57:00,17.3,7.2,29.63,North,355,5.0,6.0,64,0.00,,---,0.00,VWS V14.01,2013-03-18 13:57:00,
2013-03-18 07:58:00,17.3,7.2,29.63,North,355,2.0,6.0,64,0.00,,---,0.00,VWS V14.01,2013-03-18 13:58:00,
2013-03-18 07:59:00,17.5,7.1,29.64,North,355,0.0,0.0,63,0.00,,---,0.00,VWS V14.01,2013-03-18 13:59:00,
2013-03-18 08:00:00,17.5,7.1,29.64,North,355,0.0,0.0,63,0.00,,---,0.00,VWS V14.01,2013-03-18 14:00:00,
2013-03-18 08:02:00,17.8,7.0,29.64,North,355,0.0,1.0,62,0.00,,---,0.00,VWS V14.01,2013-03-18 14:02:00,
2013-03-18 08:03:00,17.8,7.0,29.64,North,355,0.0,1.0,62,0.00,,---,0.00,VWS V14.01,2013-03-18 14:03:00,
2013-03-18 08:05:00,17.9,7.1,29.64,North,355,0.0,5.0,62,0.00,,---,0.00,VWS V14.01,2013-03-18 14:05:00,
2013-03-18 08:07:00,18.3,7.5,29.64,North,355,0.0,2.0,62,0.00,,---,0.00,VWS V14.01,2013-03-18 14:07:00,
2013-03-18 08:08:00,18.4,7.2,29.64,North,355,0.0,0.0,61,0.00,,---,0.00,VWS V14.01,2013-03-18 14:08:00,
2013-03-18 08:10:00,18.6,7.4,29.63,North,355,0.0,0.0,61,0.00,,---,0.00,VWS V14.01,2013-03-18 14:10:00,
2013-03-18 08:12:00,18.7,7.1,29.64,North,355,3.0,6.0,60,0.00,,---,0.00,VWS V14.01,2013-03-18 14:12:00,
2013-03-18 08:13:00,18.7,7.1,29.64,North,355,2.0,5.0,60,0.00,,---,0.00,VWS V14.01,2013-03-18 14:13:00,
2013-03-18 08:15:00,18.7,6.8,29.64,North,355,0.0,2.0,59,0.00,,---,0.00,VWS V14.01,2013-03-18 14:15:00,
2013-03-18 08:16:00,18.7,6.8,29.64,North,355,0.0,2.0,59,0.00,,---,0.00,VWS V14.01,2013-03-18 14:16:00,
2013-03-18 08:18:00,18.7,6.8,29.64,North,355,0.0,0.0,59,0.00,,---,0.00,VWS V14.01,2013-03-18 14:18:00,
2013-03-18 08:20:00,18.9,7.3,29.64,North,355,6.0,6.0,60,0.00,,---,0.00,VWS V14.01,2013-03-18 14:20:00,
2013-03-18 08:21:00,18.9,6.9,29.64,North,355,6.0,6.0,59,0.00,,---,0.00,VWS V14.01,2013-03-18 14:21:00,
2013-03-18 08:22:00,18.9,6.6,29.65,North,355,3.0,6.0,58,0.00,,---,0.00,VWS V14.01,2013-03-18 14:22:00,
2013-03-18 08:23:00,18.9,6.2,29.64,North,355,2.0,4.0,57,0.00,,---,0.00,VWS V14.01,2013-03-18 14:23:00,
2013-03-18 08:26:00,19.0,7.1,29.64,North,355,0.0,0.0,59,0.00,,---,0.00,VWS V14.01,2013-03-18 14:26:00,
2013-03-18 08:28:00,19.3,7.7,29.64,North,355,1.0,7.0,60,0.00,,---,0.00,VWS V14.01,2013-03-18 14:28:00,
2013-03-18 08:31:00,19.7,8.1,29.64,North,355,0.0,1.0,60,0.00,,---,0.00,VWS V14.01,2013-03-18 14:31:00,
2013-03-18 08:33:00,19.8,7.8,29.65,North,355,0.0,0.0,59,0.00,,---,0.00,VWS V14.01,2013-03-18 14:33:00,
2013-03-18 08:36:00,20.1,7.7,29.65,North,355,0.0,0.0,58,0.00,,---,0.00,VWS V14.01,2013-03-18 14:36:00,
2013-03-18 08:37:00,20.3,7.5,29.65,ENE,74,0.0,7.0,57,0.00,,---,0.00,VWS V14.01,2013-03-18 14:37:00,
2013-03-18 08:38:00,20.4,7.6,29.65,ENE,74,0.0,0.0,57,0.00,,---,0.00,VWS V14.01,2013-03-18 14:38:00,
2013-03-18 08:41:00,20.6,7.4,29.65,North,5,0.0,0.0,56,0.00,,---,0.00,VWS V14.01,2013-03-18 14:41:00,
2013-03-18 08:43:00,20.6,7.0,29.65,North,5,0.0,2.0,55,0.00,,---,0.00,VWS V14.01,2013-03-18 14:43:00,
2013-03-18 08:47:00,21.0,7.4,29.66,North,5,3.0,4.0,55,0.00,,---,0.00,VWS V14.01,2013-03-18 14:47:00,
2013-03-18 08:48:00,21.1,7.9,29.65,North,5,0.0,0.0,56,0.00,,---,0.00,VWS V14.01,2013-03-18 14:48:00,
2013-03-18 08:49:00,21.2,7.6,29.65,ENE,73,1.0,6.0,55,0.00,,---,0.00,VWS V14.01,2013-03-18 14:49:00,
2013-03-18 08:52:00,21.6,7.5,29.65,East,81,0.0,0.0,54,0.00,,---,0.00,VWS V14.01,2013-03-18 14:52:00,
2013-03-18 08:53:00,21.9,7.4,29.65,East,81,0.0,1.0,53,0.00,,---,0.00,VWS V14.01,2013-03-18 14:53:00,
2013-03-18 08:54:00,22.0,7.5,29.65,NE,52,4.0,4.0,53,0.00,,---,0.00,VWS V14.01,2013-03-18 14:54:00,
2013-03-18 08:57:00,22.5,8.0,29.66,East,82,1.0,1.0,53,0.00,,---,0.00,VWS V14.01,2013-03-18 14:57:00,
2013-03-18 08:58:00,22.6,7.6,29.66,East,83,0.0,2.0,52,0.00,,---,0.00,VWS V14.01,2013-03-18 14:58:00,
2013-03-18 08:59:00,22.6,7.6,29.66,East,83,0.0,2.0,52,0.00,,---,0.00,VWS V14.01,2013-03-18 14:59:00,
2013-03-18 09:02:00,22.8,7.4,29.66,SE,139,0.0,0.0,51,0.00,,---,0.00,VWS V14.01,2013-03-18 15:02:00,
2013-03-18 09:03:00,22.9,7.5,29.66,SE,139,0.0,0.0,51,0.00,,---,0.00,VWS V14.01,2013-03-18 15:03:00,
2013-03-18 09:04:00,22.9,7.9,29.66,SE,133,1.0,4.0,52,0.00,,---,0.00,VWS V14.01,2013-03-18 15:04:00,
2013-03-18 09:07:00,22.9,7.9,29.66,ENE,65,5.0,6.0,52,0.00,,---,0.00,VWS V14.01,2013-03-18 15:07:00,
2013-03-18 09:08:00,23.0,8.0,29.66,ENE,65,0.0,1.0,52,0.00,,---,0.00,VWS V14.01,2013-03-18 15:08:00,
2013-03-18 09:09:00,23.0,8.0,29.66,ENE,65,0.0,1.0,52,0.00,,---,0.00,VWS V14.01,2013-03-18 15:09:00,
2013-03-18 09:12:00,22.9,7.5,29.66,North,355,8.0,8.0,51,0.00,,---,0.00,VWS V14.01,2013-03-18 15:12:00,
2013-03-18 09:13:00,22.8,7.0,29.66,North,355,6.0,7.0,50,0.00,,---,0.00,VWS V14.01,2013-03-18 15:13:00,
2013-03-18 09:14:00,22.8,6.5,29.66,North,355,5.0,5.0,49,0.00,,---,0.00,VWS V14.01,2013-03-18 15:14:00,
2013-03-18 09:17:00,22.4,7.9,29.66,North,350,5.0,6.0,53,0.00,,---,0.00,VWS V14.01,2013-03-18 15:17:00,
2013-03-18 09:19:00,22.4,7.9,29.67,NNW,348,5.0,6.0,53,0.00,,---,0.00,VWS V14.01,2013-03-18 15:19:00,
2013-03-18 09:22:00,22.4,7.9,29.66,NNW,348,7.0,9.0,53,0.00,,---,0.00,VWS V14.01,2013-03-18 15:22:00,
2013-03-18 09:24:00,22.5,7.5,29.66,NNW,348,2.0,4.0,52,0.00,,---,0.00,VWS V14.01,2013-03-18 15:24:00,
2013-03-18 09:27:00,22.8,8.7,29.66,NNW,348,0.0,0.0,54,0.00,,---,0.00,VWS V14.01,2013-03-18 15:27:00,
2013-03-18 09:29:00,23.1,8.5,29.66,NNW,348,5.0,7.0,53,0.00,,---,0.00,VWS V14.01,2013-03-18 15:29:00,
2013-03-18 09:32:00,23.3,8.3,29.67,NNW,348,0.0,1.0,52,0.00,,---,0.00,VWS V14.01,2013-03-18 15:32:00,
2013-03-18 09:34:00,23.6,8.6,29.67,NNW,348,2.0,2.0,52,0.00,,---,0.00,VWS V14.01,2013-03-18 15:34:00,
2013-03-18 09:37:00,24.0,8.1,29.67,North,349,1.0,7.0,50,0.00,,---,0.00,VWS V14.01,2013-03-18 15:37:00,
2013-03-18 09:39:00,24.2,8.7,29.67,North,349,7.0,7.0,51,0.00,,---,0.00,VWS V14.01,2013-03-18 15:39:00,
2013-03-18 09:42:00,24.4,7.5,29.67,North,349,0.0,0.0,48,0.00,,---,0.00,VWS V14.01,2013-03-18 15:42:00,
2013-03-18 09:44:00,24.5,7.6,29.67,North,349,0.0,0.0,48,0.00,,---,0.00,VWS V14.01,2013-03-18 15:44:00,
2013-03-18 09:48:00,24.9,8.0,29.67,North,349,2.0,2.0,48,0.00,,---,0.00,VWS V14.01,2013-03-18 15:48:00,
2013-03-18 09:49:00,25.4,7.5,29.67,North,355,2.0,3.0,46,0.00,,---,0.00,VWS V14.01,2013-03-18 15:49:00,
2013-03-18 09:53:00,26.8,7.8,29.67,NNE,17,4.0,5.0,44,0.00,,---,0.00,VWS V14.01,2013-03-18 15:53:00,
2013-03-18 09:54:00,27.6,8.0,29.67,NNE,32,5.0,5.0,43,0.00,,---,0.00,VWS V14.01,2013-03-18 15:54:00,
2013-03-18 09:56:00,27.8,7.2,29.67,NNE,32,0.0,5.0,41,0.00,,---,0.00,VWS V14.01,2013-03-18 15:56:00,
2013-03-18 09:58:00,28.2,8.6,29.67,NNE,32,0.0,0.0,43,0.00,,---,0.00,VWS V14.01,2013-03-18 15:58:00,
2013-03-18 09:59:00,28.5,8.3,29.67,NNE,32,0.0,0.0,42,0.00,,---,0.00,VWS V14.01,2013-03-18 15:59:00,
2013-03-18 10:01:00,29.0,8.3,29.67,ESE,103,4.0,4.0,41,0.00,,---,0.00,VWS V14.01,2013-03-18 16:01:00,
2013-03-18 10:03:00,29.5,8.7,29.67,SE,132,6.0,7.0,41,0.00,,---,0.00,VWS V14.01,2013-03-18 16:03:00,
2013-03-18 10:04:00,29.7,8.9,29.68,SE,132,5.0,6.0,41,0.00,,---,0.00,VWS V14.01,2013-03-18 16:04:00,
2013-03-18 10:06:00,30.0,9.2,29.68,SE,132,2.0,3.0,41,0.00,,---,0.00,VWS V14.01,2013-03-18 16:06:00,
2013-03-18 10:08:00,29.9,8.5,29.67,SE,130,3.0,7.0,40,0.00,,---,0.00,VWS V14.01,2013-03-18 16:08:00,
2013-03-18 10:09:00,30.0,8.6,29.68,SE,130,5.0,6.0,40,0.00,,---,0.00,VWS V14.01,2013-03-18 16:09:00,
2013-03-18 10:11:00,29.8,8.4,29.68,SE,141,6.0,8.0,40,0.00,,---,0.00,VWS V14.01,2013-03-18 16:11:00,
2013-03-18 10:13:00,29.3,8.0,29.68,SSE,165,0.0,2.0,40,0.00,,---,0.00,VWS V14.01,2013-03-18 16:13:00,
2013-03-18 10:14:00,29.2,7.9,29.68,SSE,165,4.0,5.0,40,0.00,,---,0.00,VWS V14.01,2013-03-18 16:14:00,
2013-03-18 10:17:00,29.4,8.6,29.68,SSE,165,0.0,4.0,41,0.00,,---,0.00,VWS V14.01,2013-03-18 16:17:00,
2013-03-18 10:19:00,29.7,8.4,29.68,SSE,164,4.0,6.0,40,0.00,,---,0.00,VWS V14.01,2013-03-18 16:19:00,
2013-03-18 10:20:00,29.4,7.5,29.68,SSE,159,6.0,8.0,39,0.00,,---,0.00,VWS V14.01,2013-03-18 16:20:00,
2013-03-18 10:22:00,29.2,7.9,29.68,SE,146,4.0,4.0,40,0.00,,---,0.00,VWS V14.01,2013-03-18 16:22:00,
2013-03-18 10:24:00,29.4,8.1,29.68,SE,146,1.0,1.0,40,0.00,,---,0.00,VWS V14.01,2013-03-18 16:24:00,
2013-03-18 10:26:00,29.8,8.4,29.68,SSW,205,6.0,6.0,40,0.00,,---,0.00,VWS V14.01,2013-03-18 16:26:00,
2013-03-18 10:27:00,30.1,8.1,29.68,NNW,337,8.0,10.0,39,0.00,,---,0.00,VWS V14.01,2013-03-18 16:27:00,
2013-03-18 10:29:00,30.2,6.5,29.68,NNW,327,5.0,6.0,36,0.00,,---,0.00,VWS V14.01,2013-03-18 16:29:00,
2013-03-18 10:31:00,30.4,5.4,29.68,North,355,13.0,13.0,34,0.00,,---,0.00,VWS V14.01,2013-03-18 16:31:00,
2013-03-18 10:32:00,30.5,5.5,29.67,WSW,250,6.0,8.0,34,0.00,,---,0.00,VWS V14.01,2013-03-18 16:32:00,
2013-03-18 10:34:00,30.7,7.5,29.67,North,350,6.0,7.0,37,0.00,,---,0.00,VWS V14.01,2013-03-18 16:34:00,
2013-03-18 10:35:00,30.9,7.1,29.67,NNW,342,8.0,8.0,36,0.00,,---,0.00,VWS V14.01,2013-03-18 16:35:00,
2013-03-18 10:36:00,31.0,4.6,29.67,NNW,329,8.0,16.0,32,0.00,,---,0.00,VWS V14.01,2013-03-18 16:36:00,
2013-03-18 10:37:00,31.0,4.6,29.67,North,349,10.0,19.0,32,0.00,,---,0.00,VWS V14.01,2013-03-18 16:37:00,
2013-03-18 10:39:00,31.0,5.3,29.67,NNW,347,13.0,14.0,33,0.00,,---,0.00,VWS V14.01,2013-03-18 16:39:00,
2013-03-18 10:40:00,31.2,5.5,29.67,North,355,18.0,18.0,33,0.00,,---,0.00,VWS V14.01,2013-03-18 16:40:00,
2013-03-18 10:41:00,31.2,4.1,29.67,NW,323,12.0,21.0,31,0.00,,---,0.00,VWS V14.01,2013-03-18 16:41:00,
2013-03-18 10:42:00,31.2,2.7,29.67,NW,324,10.0,12.0,29,0.00,,---,0.00,VWS V14.01,2013-03-18 16:42:00,
2013-03-18 10:44:00,31.1,2.6,29.67,NW,323,9.0,9.0,29,0.00,,---,0.00,VWS V14.01,2013-03-18 16:44:00,
2013-03-18 10:45:00,31.1,4.7,29.67,North,355,7.0,8.0,32,0.00,,---,0.00,VWS V14.01,2013-03-18 16:45:00,
2013-03-18 10:47:00,31.3,4.9,29.67,NNW,333,12.0,14.0,32,0.00,,---,0.00,VWS V14.01,2013-03-18 16:47:00,
2013-03-18 10:49:00,31.4,3.6,29.67,North,350,9.0,9.0,30,0.00,,---,0.00,VWS V14.01,2013-03-18 16:49:00,
2013-03-18 10:51:00,31.6,3.7,29.67,NNW,348,13.0,15.0,30,0.00,,---,0.00,VWS V14.01,2013-03-18 16:51:00,
2013-03-18 10:52:00,31.6,3.0,29.67,North,349,13.0,19.0,29,0.00,,---,0.00,VWS V14.01,2013-03-18 16:52:00,
2013-03-18 10:53:00,31.6,3.0,29.67,NNW,340,9.0,14.0,29,0.00,,---,0.00,VWS V14.01,2013-03-18 16:53:00,
2013-03-18 10:54:00,31.6,3.7,29.67,North,355,5.0,11.0,30,0.00,,---,0.00,VWS V14.01,2013-03-18 16:54:00,
2013-03-18 10:56:00,31.7,4.5,29.67,North,360,18.0,18.0,31,0.00,,---,0.00,VWS V14.01,2013-03-18 16:56:00,
2013-03-18 10:57:00,31.9,3.3,29.67,NNW,348,9.0,14.0,29,0.00,,---,0.00,VWS V14.01,2013-03-18 16:57:00,
2013-03-18 10:58:00,32.0,3.3,29.67,NNW,330,10.0,19.0,29,0.00,,---,0.00,VWS V14.01,2013-03-18 16:58:00,
2013-03-18 10:59:00,32.1,3.4,29.67,North,355,10.0,12.0,29,0.00,,---,0.00,VWS V14.01,2013-03-18 16:59:00,
2013-03-18 11:01:00,32.3,3.6,29.67,North,350,11.0,14.0,29,0.00,,---,0.00,VWS V14.01,2013-03-18 17:01:00,
2013-03-18 11:02:00,32.4,2.9,29.67,North,5,16.0,18.0,28,0.00,,---,0.00,VWS V14.01,2013-03-18 17:02:00,
2013-03-18 11:03:00,32.4,3.7,29.67,North,350,19.0,19.0,29,0.00,,---,0.00,VWS V14.01,2013-03-18 17:03:00,
2013-03-18 11:04:00,32.4,1.4,29.67,NNW,342,13.0,16.0,26,0.00,,---,0.00,VWS V14.01,2013-03-18 17:04:00,
2013-03-18 11:06:00,32.3,5.8,29.67,NNW,348,7.0,11.0,32,0.00,,---,0.00,VWS V14.01,2013-03-18 17:06:00,
2013-03-18 11:07:00,32.1,8.2,29.67,NNW,348,8.0,12.0,36,0.00,,---,0.00,VWS V14.01,2013-03-18 17:07:00,
2013-03-18 11:08:00,31.9,8.0,29.67,NNW,346,14.0,14.0,36,0.00,,---,0.00,VWS V14.01,2013-03-18 17:08:00,
2013-03-18 11:09:00,31.6,7.7,29.67,NNW,344,10.0,14.0,36,0.00,,---,0.00,VWS V14.01,2013-03-18 17:09:00,
2013-03-18 11:11:00,31.4,9.9,29.67,NNE,31,7.0,11.0,40,0.00,,---,0.00,VWS V14.01,2013-03-18 17:11:00,
2013-03-18 11:12:00,31.2,9.1,29.67,NNW,346,8.0,16.0,39,0.00,,---,0.00,VWS V14.01,2013-03-18 17:12:00,
2013-03-18 11:14:00,31.0,9.0,29.67,North,360,5.0,6.0,39,0.00,,---,0.00,VWS V14.01,2013-03-18 17:14:00,
2013-03-18 11:16:00,31.0,10.1,29.67,North,351,8.0,8.0,41,0.00,,---,0.00,VWS V14.01,2013-03-18 17:16:00,
2013-03-18 11:17:00,30.9,10.0,29.67,North,351,6.0,7.0,41,0.00,,---,0.00,VWS V14.01,2013-03-18 17:17:00,
2013-03-18 11:20:00,30.9,10.5,29.67,North,355,9.0,9.0,42,0.00,,---,0.00,VWS V14.01,2013-03-18 17:20:00,
2013-03-18 11:21:00,31.0,10.1,29.67,North,350,10.0,10.0,41,0.00,,---,0.00,VWS V14.01,2013-03-18 17:21:00,
2013-03-18 11:22:00,31.0,10.1,29.67,North,360,9.0,9.0,41,0.00,,---,0.00,VWS V14.01,2013-03-18 17:22:00,
2013-03-18 11:25:00,31.0,10.1,29.67,North,355,7.0,7.0,41,0.00,,---,0.00,VWS V14.01,2013-03-18 17:25:00,
2013-03-18 11:26:00,31.1,10.2,29.67,North,351,8.0,11.0,41,0.00,,---,0.00,VWS V14.01,2013-03-18 17:26:00,
2013-03-18 11:28:00,30.9,8.9,29.67,North,350,6.0,7.0,39,0.00,,---,0.00,VWS V14.01,2013-03-18 17:28:00,
2013-03-18 11:30:00,30.9,10.0,29.67,North,350,10.0,10.0,41,0.00,,---,0.00,VWS V14.01,2013-03-18 17:30:00,
2013-03-18 11:31:00,31.0,10.1,29.67,North,5,9.0,14.0,41,0.00,,---,0.00,VWS V14.01,2013-03-18 17:31:00,
2013-03-18 11:33:00,31.2,10.2,29.67,NNW,338,9.0,9.0,41,0.00,,---,0.00,VWS V14.01,2013-03-18 17:33:00,
2013-03-18 11:35:00,31.2,9.7,29.67,North,351,7.0,7.0,40,0.00,,---,0.00,VWS V14.01,2013-03-18 17:35:00,
2013-03-18 11:37:00,31.4,11.0,29.67,North,355,6.0,9.0,42,0.00,,---,0.00,VWS V14.01,2013-03-18 17:37:00,
2013-03-18 11:38:00,31.5,10.5,29.67,NNW,345,9.0,11.0,41,0.00,,---,0.00,VWS V14.01,2013-03-18 17:38:00,
2013-03-18 11:40:00,31.6,11.2,29.67,North,355,6.0,8.0,42,0.00,,---,0.00,VWS V14.01,2013-03-18 17:40:00,
2013-03-18 11:42:00,31.8,10.8,29.67,North,355,4.0,4.0,41,0.00,,---,0.00,VWS V14.01,2013-03-18 17:42:00,
2013-03-18 11:43:00,31.9,10.3,29.67,North,355,11.0,11.0,40,0.00,,---,0.00,VWS V14.01,2013-03-18 17:43:00,
2013-03-18 11:46:00,32.1,9.9,29.67,North,360,5.0,6.0,39,0.00,,---,0.00,VWS V14.01,2013-03-18 17:46:00,
2013-03-18 11:47:00,32.2,10.6,29.67,North,360,8.0,9.0,40,0.00,,---,0.00,VWS V14.01,2013-03-18 17:47:00,
2013-03-18 11:48:00,32.2,10.6,29.67,North,360,8.0,8.0,40,0.00,,---,0.00,VWS V14.01,2013-03-18 17:48:00,
2013-03-18 11:51:00,32.1,10.5,29.67,NNW,348,8.0,11.0,40,0.00,,---,0.00,VWS V14.01,2013-03-18 17:51:00,
2013-03-18 11:52:00,32.1,9.9,29.67,North,350,4.0,12.0,39,0.00,,---,0.00,VWS V14.01,2013-03-18 17:52:00,
2013-03-18 11:53:00,32.2,11.2,29.67,NNW,346,10.0,12.0,41,0.00,,---,0.00,VWS V14.01,2013-03-18 17:53:00,
2013-03-18 11:56:00,32.0,8.7,29.67,NNW,348,8.0,8.0,37,0.00,,---,0.00,VWS V14.01,2013-03-18 17:56:00,
2013-03-18 11:57:00,31.9,10.9,29.67,North,355,9.0,9.0,41,0.00,,---,0.00,VWS V14.01,2013-03-18 17:57:00,
2013-03-18 11:58:00,32.0,11.0,29.67,North,355,5.0,9.0,41,0.00,,---,0.00,VWS V14.01,2013-03-18 17:58:00,
2013-03-18 12:01:00,32.3,10.7,29.67,NNW,346,13.0,13.0,40,0.00,,---,0.00,VWS V14.01,2013-03-18 18:01:00,
2013-03-18 12:03:00,32.4,11.3,29.67,North,350,6.0,14.0,41,0.00,,---,0.00,VWS V14.01,2013-03-18 18:03:00,
2013-03-18 12:04:00,32.6,11.0,29.67,North,350,4.0,7.0,40,0.00,,---,0.00,VWS V14.01,2013-03-18 18:04:00,
2013-03-18 12:06:00,32.7,10.5,29.67,NNW,337,6.0,7.0,39,0.00,,---,0.00,VWS V14.01,2013-03-18 18:06:00,
2013-03-18 12:08:00,32.5,9.7,29.67,North,9,8.0,12.0,38,0.00,,---,0.00,VWS V14.01,2013-03-18 18:08:00,
2013-03-18 12:09:00,32.6,10.4,29.67,North,5,7.0,9.0,39,0.00,,---,0.00,VWS V14.01,2013-03-18 18:09:00,
2013-03-18 12:11:00,32.6,9.8,29.67,NNE,12,4.0,5.0,38,0.00,,---,0.00,VWS V14.01,2013-03-18 18:11:00,
2013-03-18 12:13:00,32.7,10.5,29.67,North,355,8.0,12.0,39,0.00,,---,0.00,VWS V14.01,2013-03-18 18:13:00,
2013-03-18 12:14:00,32.8,10.6,29.67,North,355,8.0,11.0,39,0.00,,---,0.00,VWS V14.01,2013-03-18 18:14:00,
2013-03-18 12:16:00,33.2,10.9,29.67,North,355,6.0,11.0,39,0.00,,---,0.00,VWS V14.01,2013-03-18 18:16:00,
2013-03-18 12:18:00,33.4,11.1,29.67,NNW,336,9.0,12.0,39,0.00,,---,0.00,VWS V14.01,2013-03-18 18:18:00,
2013-03-18 12:19:00,33.3,9.9,29.67,North,355,9.0,12.0,37,0.00,,---,0.00,VWS V14.01,2013-03-18 18:19:00,
2013-03-18 12:22:00,33.6,11.3,29.67,NNW,344,7.0,13.0,39,0.00,,---,0.00,VWS V14.01,2013-03-18 18:22:00,
2013-03-18 12:23:00,33.8,10.3,29.67,North,355,12.0,12.0,37,0.00,,---,0.00,VWS V14.01,2013-03-18 18:23:00,
2013-03-18 12:24:00,33.6,8.2,29.67,North,355,8.0,15.0,34,0.00,,---,0.00,VWS V14.01,2013-03-18 18:24:00,
2013-03-18 12:27:00,33.7,10.2,29.66,NNW,348,11.0,11.0,37,0.00,,---,0.00,VWS V14.01,2013-03-18 18:27:00,
2013-03-18 12:28:00,33.9,11.6,29.67,North,9,7.0,11.0,39,0.00,,---,0.00,VWS V14.01,2013-03-18 18:28:00,
2013-03-18 12:29:00,34.1,11.8,29.67,North,5,6.0,12.0,39,0.00,,---,0.00,VWS V14.01,2013-03-18 18:29:00,
2013-03-18 12:32:00,34.4,9.6,29.66,North,360,6.0,8.0,35,0.00,,---,0.00,VWS V14.01,2013-03-18 18:32:00,
2013-03-18 12:33:00,34.6,10.4,29.66,North,355,8.0,8.0,36,0.00,,---,0.00,VWS V14.01,2013-03-18 18:33:00,
2013-03-18 12:34:00,34.6,9.1,29.66,NNW,346,11.0,16.0,34,0.00,,---,0.00,VWS V14.01,2013-03-18 18:34:00,
2013-03-18 12:37:00,34.4,10.8,29.67,North,355,7.0,7.0,37,0.00,,---,0.00,VWS V14.01,2013-03-18 18:37:00,
2013-03-18 12:38:00,34.4,9.6,29.66,North,350,12.0,18.0,35,0.00,,---,0.00,VWS V14.01,2013-03-18 18:38:00,
2013-03-18 12:39:00,34.4,10.2,29.66,NNW,344,10.0,18.0,36,0.00,,---,0.00,VWS V14.01,2013-03-18 18:39:00,
2013-03-18 12:42:00,34.4,9.6,29.66,North,349,13.0,14.0,35,0.00,,---,0.00,VWS V14.01,2013-03-18 18:42:00,
2013-03-18 12:43:00,34.4,8.9,29.66,North,360,6.0,10.0,34,0.00,,---,0.00,VWS V14.01,2013-03-18 18:43:00,
2013-03-18 12:44:00,34.5,9.0,29.66,North,355,10.0,10.0,34,0.00,,---,0.00,VWS V14.01,2013-03-18 18:44:00,
2013-03-18 12:45:00,34.7,10.5,29.66,North,5,7.0,7.0,36,0.00,,---,0.00,VWS V14.01,2013-03-18 18:45:00,
2013-03-18 12:47:00,34.8,9.9,29.66,NNW,345,5.0,13.0,35,0.00,,---,0.00,VWS V14.01,2013-03-18 18:47:00,
2013-03-18 12:48:00,34.9,10.0,29.66,NNE,17,9.0,12.0,35,0.00,,---,0.00,VWS V14.01,2013-03-18 18:48:00,
2013-03-18 12:49:00,34.9,10.0,29.66,North,355,6.0,12.0,35,0.00,,---,0.00,VWS V14.01,2013-03-18 18:49:00,
2013-03-18 12:51:00,35.0,10.1,29.66,North,360,6.0,14.0,35,0.00,,---,0.00,VWS V14.01,2013-03-18 18:51:00,
2013-03-18 12:52:00,35.1,8.9,29.66,North,355,14.0,14.0,33,0.00,,---,0.00,VWS V14.01,2013-03-18 18:52:00,
2013-03-18 12:53:00,34.9,8.1,29.66,North,360,10.0,13.0,32,0.00,,---,0.00,VWS V14.01,2013-03-18 18:53:00,
2013-03-18 12:54:00,34.8,8.0,29.66,NNW,341,7.0,8.0,32,0.00,,---,0.00,VWS V14.01,2013-03-18 18:54:00,
2013-03-18 12:56:00,34.8,9.3,29.66,NNW,346,8.0,8.0,34,0.00,,---,0.00,VWS V14.01,2013-03-18 18:56:00,
2013-03-18 12:57:00,34.9,9.4,29.66,NNE,13,6.0,10.0,34,0.00,,---,0.00,VWS V14.01,2013-03-18 18:57:00,
2013-03-18 12:58:00,35.0,8.1,29.66,NNW,348,6.0,8.0,32,0.00,,---,0.00,VWS V14.01,2013-03-18 18:58:00,
2013-03-18 12:59:00,35.1,8.9,29.66,NNW,344,7.0,8.0,33,0.00,,---,0.00,VWS V14.01,2013-03-18 18:59:00,
2013-03-18 13:01:00,35.3,9.1,29.66,NNW,346,8.0,9.0,33,0.00,,---,0.00,VWS V14.01,2013-03-18 19:01:00,
2013-03-18 13:02:00,35.3,7.7,29.66,North,350,6.0,9.0,31,0.00,,---,0.00,VWS V14.01,2013-03-18 19:02:00,
2013-03-18 13:03:00,35.2,7.6,29.66,North,350,7.0,8.0,31,0.00,,---,0.00,VWS V14.01,2013-03-18 19:03:00,
2013-03-18 13:04:00,35.1,8.2,29.66,North,350,9.0,9.0,32,0.00,,---,0.00,VWS V14.01,2013-03-18 19:04:00,
2013-03-18 13:06:00,35.3,9.1,29.66,NNW,346,10.0,12.0,33,0.00,,---,0.00,VWS V14.01,2013-03-18 19:06:00,
2013-03-18 13:07:00,35.4,8.5,29.66,NNW,341,9.0,9.0,32,0.00,,---,0.00,VWS V14.01,2013-03-18 19:07:00,
2013-03-18 13:08:00,35.4,7.1,29.66,NNW,348,10.0,10.0,30,0.00,,---,0.00,VWS V14.01,2013-03-18 19:08:00,
2013-03-18 13:09:00,35.3,6.2,29.66,NNW,348,6.0,10.0,29,0.00,,---,0.00,VWS V14.01,2013-03-18 19:09:00,
2013-03-18 13:11:00,35.1,7.5,29.66,NNW,348,5.0,5.0,31,0.00,,---,0.00,VWS V14.01,2013-03-18 19:11:00,
2013-03-18 13:13:00,35.5,8.6,29.65,NNW,348,11.0,11.0,32,0.00,,---,0.00,VWS V14.01,2013-03-18 19:13:00,
2013-03-18 13:14:00,35.8,8.8,29.66,North,355,5.0,6.0,32,0.00,,---,0.00,VWS V14.01,2013-03-18 19:14:00,
2013-03-18 13:16:00,36.3,7.8,29.65,North,355,5.0,6.0,30,0.00,,---,0.00,VWS V14.01,2013-03-18 19:16:00,
2013-03-18 13:18:00,36.6,6.6,29.65,North,5,3.0,8.0,28,0.00,,---,0.00,VWS V14.01,2013-03-18 19:18:00,
2013-03-18 13:19:00,36.8,5.1,29.66,North,5,1.0,2.0,26,0.00,,---,0.00,VWS V14.01,2013-03-18 19:19:00,
2013-03-18 13:21:00,36.8,4.3,29.66,North,5,2.0,2.0,25,0.00,,---,0.00,VWS V14.01,2013-03-18 19:21:00,
2013-03-18 13:23:00,36.7,5.1,29.65,North,355,2.0,4.0,26,0.00,,---,0.00,VWS V14.01,2013-03-18 19:23:00,
2013-03-18 13:25:00,36.8,6.8,29.65,North,355,6.0,10.0,28,0.00,,---,0.00,VWS V14.01,2013-03-18 19:25:00,
2013-03-18 13:26:00,36.8,4.3,29.65,North,355,0.0,1.0,25,0.00,,---,0.00,VWS V14.01,2013-03-18 19:26:00,
2013-03-18 13:28:00,36.8,5.1,29.65,North,355,1.0,1.0,26,0.00,,---,0.00,VWS V14.01,2013-03-18 19:28:00,
2013-03-18 13:30:00,37.0,5.3,29.65,North,355,6.0,9.0,26,0.00,,---,0.00,VWS V14.01,2013-03-18 19:30:00,
2013-03-18 13:31:00,37.2,6.3,29.65,NNW,329,7.0,8.0,27,0.00,,---,0.00,VWS V14.01,2013-03-18 19:31:00,
2013-03-18 13:33:00,37.1,3.7,29.65,NNW,348,7.0,9.0,24,0.00,,---,0.00,VWS V14.01,2013-03-18 19:33:00,
2013-03-18 13:35:00,37.4,3.0,29.65,NE,38,0.0,7.0,23,0.00,,---,0.00,VWS V14.01,2013-03-18 19:35:00,
2013-03-18 13:37:00,37.5,4.0,29.65,North,355,2.0,7.0,24,0.00,,---,0.00,VWS V14.01,2013-03-18 19:37:00,
2013-03-18 13:38:00,37.9,4.3,29.65,North,355,5.0,5.0,24,0.00,,---,0.00,VWS V14.01,2013-03-18 19:38:00,
2013-03-18 13:41:00,38.5,0.9,29.64,NNW,338,3.0,3.0,20,0.00,,---,0.00,VWS V14.01,2013-03-18 19:41:00,
2013-03-18 13:42:00,38.7,-1.1,29.64,NW,325,6.0,11.0,18,0.00,,---,0.00,VWS V14.01,2013-03-18 19:42:00,
2013-03-18 13:43:00,38.9,-2.2,29.64,North,350,8.0,13.0,17,0.00,,---,0.00,VWS V14.01,2013-03-18 19:43:00,
2013-03-18 13:46:00,39.2,-3.2,29.64,NW,324,9.0,11.0,16,0.00,,---,0.00,VWS V14.01,2013-03-18 19:46:00,
2013-03-18 13:47:00,39.1,-6.1,29.64,NNW,329,10.0,10.0,14,0.00,,---,0.00,VWS V14.01,2013-03-18 19:47:00,
2013-03-18 13:48:00,39.1,-2.0,29.64,North,5,9.0,14.0,17,0.00,,---,0.00,VWS V14.01,2013-03-18 19:48:00,
2013-03-18 13:52:00,39.2,-4.6,29.63,North,360,12.0,18.0,15,0.00,,---,0.00,VWS V14.01,2013-03-18 19:52:00,
2013-03-18 13:53:00,39.1,-6.1,29.63,NNW,328,7.0,11.0,14,0.00,,---,0.00,VWS V14.01,2013-03-18 19:53:00,
2013-03-18 13:57:00,38.8,2.2,29.64,NNW,346,11.0,11.0,21,0.00,,---,0.00,VWS V14.01,2013-03-18 19:57:00,
2013-03-18 13:58:00,38.6,1.0,29.63,North,349,9.0,14.0,20,0.00,,---,0.00,VWS V14.01,2013-03-18 19:58:00,
2013-03-18 14:02:00,38.8,4.2,29.64,North,355,4.0,10.0,23,0.00,,---,0.00,VWS V14.01,2013-03-18 20:02:00,
2013-03-18 14:03:00,39.2,4.5,29.63,North,350,5.0,10.0,23,0.00,,---,0.00,VWS V14.01,2013-03-18 20:03:00,
2013-03-18 14:07:00,39.2,2.6,29.63,North,355,11.0,15.0,21,0.00,,---,0.00,VWS V14.01,2013-03-18 20:07:00,
2013-03-18 14:08:00,38.8,1.2,29.63,NNW,339,8.0,8.0,20,0.00,,---,0.00,VWS V14.01,2013-03-18 20:08:00,
2013-03-18 14:09:00,38.8,1.2,29.63,NNW,338,8.0,8.0,20,0.00,,---,0.00,VWS V14.01,2013-03-18 20:09:00,
2013-03-18 14:12:00,38.6,3.0,29.64,NNW,339,9.0,14.0,22,0.00,,---,0.00,VWS V14.01,2013-03-18 20:12:00,
2013-03-18 14:13:00,38.6,-0.1,29.64,NNW,335,6.0,10.0,19,0.00,,---,0.00,VWS V14.01,2013-03-18 20:13:00,
2013-03-18 14:14:00,38.4,0.8,29.63,NNW,334,6.0,9.0,20,0.00,,---,0.00,VWS V14.01,2013-03-18 20:14:00,
2013-03-18 14:17:00,38.3,1.8,29.63,North,350,4.0,5.0,21,0.00,,---,0.00,VWS V14.01,2013-03-18 20:17:00,
2013-03-18 14:19:00,38.5,3.0,29.63,NNW,329,11.0,11.0,22,0.00,,---,0.00,VWS V14.01,2013-03-18 20:19:00,
2013-03-18 14:22:00,38.4,4.8,29.63,NNW,343,9.0,14.0,24,0.00,,---,0.00,VWS V14.01,2013-03-18 20:22:00,
2013-03-18 14:24:00,38.5,3.9,29.63,North,9,8.0,18.0,23,0.00,,---,0.00,VWS V14.01,2013-03-18 20:24:00,
2013-03-18 14:27:00,38.6,2.0,29.63,North,350,6.0,11.0,21,0.00,,---,0.00,VWS V14.01,2013-03-18 20:27:00,
2013-03-18 14:29:00,38.4,1.9,29.63,NNW,344,14.0,14.0,21,0.00,,---,0.00,VWS V14.01,2013-03-18 20:29:00,
2013-03-18 14:30:00,38.3,0.8,29.63,North,360,9.0,14.0,20,0.00,,---,0.00,VWS V14.01,2013-03-18 20:30:00,
2013-03-18 14:32:00,37.8,2.4,29.63,North,360,10.0,10.0,22,0.00,,---,0.00,VWS V14.01,2013-03-18 20:32:00,
2013-03-18 14:34:00,37.9,2.5,29.62,NNW,344,1.0,5.0,22,0.00,,---,0.00,VWS V14.01,2013-03-18 20:34:00,
2013-03-18 14:36:00,38.1,2.6,29.62,North,355,9.0,9.0,22,0.00,,---,0.00,VWS V14.01,2013-03-18 20:36:00,
2013-03-18 14:37:00,38.6,3.0,29.62,North,355,9.0,11.0,22,0.00,,---,0.00,VWS V14.01,2013-03-18 20:37:00,
2013-03-18 14:39:00,38.9,2.3,29.62,North,355,10.0,12.0,21,0.00,,---,0.00,VWS V14.01,2013-03-18 20:39:00,
2013-03-18 14:42:00,38.9,2.3,29.62,NNW,346,10.0,13.0,21,0.00,,---,0.00,VWS V14.01,2013-03-18 20:42:00,
2013-03-18 14:44:00,38.6,2.0,29.62,North,351,8.0,14.0,21,0.00,,---,0.00,VWS V14.01,2013-03-18 20:44:00,
2013-03-18 14:45:00,38.4,1.9,29.62,North,5,7.0,7.0,21,0.00,,---,0.00,VWS V14.01,2013-03-18 20:45:00,
2013-03-18 14:47:00,38.6,1.0,29.62,NNW,348,12.0,12.0,20,0.00,,---,0.00,VWS V14.01,2013-03-18 20:47:00,
2013-03-18 14:49:00,38.4,1.9,29.62,North,5,7.0,13.0,21,0.00,,---,0.00,VWS V14.01,2013-03-18 20:49:00,
2013-03-18 14:51:00,38.4,1.9,29.62,North,360,8.0,8.0,21,0.00,,---,0.00,VWS V14.01,2013-03-18 20:51:00,
2013-03-18 14:52:00,38.4,1.9,29.62,North,349,9.0,9.0,21,0.00,,---,0.00,VWS V14.01,2013-03-18 20:52:00,
2013-03-18 14:53:00,38.3,1.8,29.62,NNW,347,6.0,8.0,21,0.00,,---,0.00,VWS V14.01,2013-03-18 20:53:00,
2013-03-18 14:55:00,37.9,1.5,29.62,North,355,9.0,13.0,21,0.00,,---,0.00,VWS V14.01,2013-03-18 20:55:00,
2013-03-18 14:56:00,37.8,-0.8,29.62,North,350,11.0,13.0,19,0.00,,---,0.00,VWS V14.01,2013-03-18 20:56:00,
2013-03-18 14:57:00,37.7,-0.8,29.62,NNW,344,14.0,14.0,19,0.00,,---,0.00,VWS V14.01,2013-03-18 20:57:00,
2013-03-18 14:58:00,37.7,0.3,29.62,North,350,8.0,11.0,20,0.00,,---,0.00,VWS V14.01,2013-03-18 20:58:00,
2013-03-18 15:01:00,37.5,0.1,29.62,North,355,6.0,8.0,20,0.00,,---,0.00,VWS V14.01,2013-03-18 21:01:00,
2013-03-18 15:02:00,37.4,-1.1,29.62,NNW,348,10.0,15.0,19,0.00,,---,0.00,VWS V14.01,2013-03-18 21:02:00,
2013-03-18 15:03:00,37.3,-1.2,29.62,North,360,6.0,8.0,19,0.00,,---,0.00,VWS V14.01,2013-03-18 21:03:00,
2013-03-18 15:06:00,37.0,-1.4,29.62,NNW,348,7.0,9.0,19,0.00,,---,0.00,VWS V14.01,2013-03-18 21:06:00,
2013-03-18 15:07:00,36.8,-0.5,29.62,NNW,347,12.0,14.0,20,0.00,,---,0.00,VWS V14.01,2013-03-18 21:07:00,
2013-03-18 15:08:00,36.6,-2.9,29.62,North,351,11.0,12.0,18,0.00,,---,0.00,VWS V14.01,2013-03-18 21:08:00,
2013-03-18 15:11:00,36.3,-0.9,29.62,NNW,348,5.0,5.0,20,0.00,,---,0.00,VWS V14.01,2013-03-18 21:11:00,
2013-03-18 15:12:00,36.4,-3.0,29.62,NNW,348,0.0,5.0,18,0.00,,---,0.00,VWS V14.01,2013-03-18 21:12:00,
2013-03-18 15:13:00,36.6,-0.7,29.62,NNW,348,4.0,5.0,20,0.00,,---,0.00,VWS V14.01,2013-03-18 21:13:00,
2013-03-18 15:16:00,37.4,0.0,29.62,North,5,3.0,5.0,20,0.00,,---,0.00,VWS V14.01,2013-03-18 21:16:00,
2013-03-18 15:17:00,37.6,1.2,29.62,North,5,5.0,5.0,21,0.00,,---,0.00,VWS V14.01,2013-03-18 21:17:00,
2013-03-18 15:18:00,38.2,0.7,29.62,North,5,6.0,6.0,20,0.00,,---,0.00,VWS V14.01,2013-03-18 21:18:00,
2013-03-18 15:22:00,39.1,-0.8,29.62,North,350,3.0,12.0,18,0.00,,---,0.00,VWS V14.01,2013-03-18 21:22:00,
2013-03-18 15:23:00,39.1,-0.8,29.62,North,349,7.0,8.0,18,0.00,,---,0.00,VWS V14.01,2013-03-18 21:23:00,
2013-03-18 15:27:00,38.6,-2.4,29.61,North,349,9.0,10.0,17,0.00,,---,0.00,VWS V14.01,2013-03-18 21:27:00,
2013-03-18 15:28:00,38.6,-0.1,29.61,NNE,17,0.0,0.0,19,0.00,,---,0.00,VWS V14.01,2013-03-18 21:28:00,
2013-03-18 15:32:00,38.3,0.8,29.61,North,355,2.0,8.0,20,0.00,,---,0.00,VWS V14.01,2013-03-18 21:32:00,
2013-03-18 15:33:00,38.3,-0.3,29.61,North,355,0.0,1.0,19,0.00,,---,0.00,VWS V14.01,2013-03-18 21:33:00,
2013-03-18 15:34:00,38.3,1.8,29.61,North,355,5.0,5.0,21,0.00,,---,0.00,VWS V14.01,2013-03-18 21:34:00,
2013-03-18 15:37:00,38.3,-0.3,29.62,NW,319,6.0,7.0,19,0.00,,---,0.00,VWS V14.01,2013-03-18 21:37:00,
2013-03-18 15:38:00,38.1,-0.5,29.62,NW,321,4.0,5.0,19,0.00,,---,0.00,VWS V14.01,2013-03-18 21:38:00,
2013-03-18 15:39:00,38.0,-0.6,29.62,North,350,9.0,12.0,19,0.00,,---,0.00,VWS V14.01,2013-03-18 21:39:00,
2013-03-18 15:42:00,37.9,-1.8,29.60,WSW,257,9.0,10.0,18,0.00,,---,0.00,VWS V14.01,2013-03-18 21:42:00,
2013-03-18 15:43:00,37.9,-3.0,29.62,NW,320,12.0,12.0,17,0.00,,---,0.00,VWS V14.01,2013-03-18 21:43:00,
2013-03-18 15:44:00,37.9,-0.7,29.62,NW,326,10.0,10.0,19,0.00,,---,0.00,VWS V14.01,2013-03-18 21:44:00,
2013-03-18 15:47:00,37.6,-0.9,29.62,NNW,332,9.0,9.0,19,0.00,,---,0.00,VWS V14.01,2013-03-18 21:47:00,
2013-03-18 15:48:00,37.6,-0.9,29.62,NNW,342,9.0,11.0,19,0.00,,---,0.00,VWS V14.01,2013-03-18 21:48:00,
2013-03-18 15:49:00,37.6,-0.9,29.62,NNW,332,6.0,9.0,19,0.00,,---,0.00,VWS V14.01,2013-03-18 21:49:00,
2013-03-18 15:52:00,37.4,-1.1,29.62,NNW,347,8.0,14.0,19,0.00,,---,0.00,VWS V14.01,2013-03-18 21:52:00,
2013-03-18 15:53:00,37.3,-2.3,29.62,NNW,348,6.0,14.0,18,0.00,,---,0.00,VWS V14.01,2013-03-18 21:53:00,
2013-03-18 15:54:00,37.3,-0.1,29.62,North,351,5.0,7.0,20,0.00,,---,0.00,VWS V14.01,2013-03-18 21:54:00,
2013-03-18 15:57:00,37.5,-1.0,29.62,NNW,347,6.0,7.0,19,0.00,,---,0.00,VWS V14.01,2013-03-18 21:57:00,
2013-03-18 15:58:00,37.5,0.1,29.62,NNW,342,7.0,7.0,20,0.00,,---,0.00,VWS V14.01,2013-03-18 21:58:00,
2013-03-18 15:59:00,37.5,0.1,29.63,NNW,342,2.0,5.0,20,0.00,,---,0.00,VWS V14.01,2013-03-18 21:59:00,
2013-03-18 16:02:00,37.7,-0.8,29.63,NNW,343,2.0,5.0,19,0.00,,---,0.00,VWS V14.01,2013-03-18 22:02:00,
2013-03-18 16:03:00,37.7,-0.8,29.63,NNW,343,0.0,5.0,19,0.00,,---,0.00,VWS V14.01,2013-03-18 22:03:00,
2013-03-18 16:04:00,37.9,0.4,29.63,North,355,7.0,10.0,20,0.00,,---,0.00,VWS V14.01,2013-03-18 22:04:00,
2013-03-18 16:07:00,37.7,1.3,29.64,North,355,1.0,5.0,21,0.00,,---,0.00,VWS V14.01,2013-03-18 22:07:00,
2013-03-18 16:08:00,37.7,1.3,29.64,North,355,0.0,1.0,21,0.00,,---,0.00,VWS V14.01,2013-03-18 22:08:00,
2013-03-18 16:09:00,37.8,-0.8,29.64,North,355,3.0,10.0,19,0.00,,---,0.00,VWS V14.01,2013-03-18 22:09:00,
2013-03-18 16:12:00,37.7,-2.0,29.64,North,355,0.0,5.0,18,0.00,,---,0.00,VWS V14.01,2013-03-18 22:12:00,
2013-03-18 16:13:00,37.7,-2.0,29.64,North,355,0.0,0.0,18,0.00,,---,0.00,VWS V14.01,2013-03-18 22:13:00,
2013-03-18 16:14:00,37.7,-2.0,29.64,North,355,4.0,5.0,18,0.00,,---,0.00,VWS V14.01,2013-03-18 22:14:00,
2013-03-18 16:15:00,37.7,-0.8,29.64,North,355,2.0,5.0,19,0.00,,---,0.00,VWS V14.01,2013-03-18 22:15:00,
2013-03-18 16:18:00,37.6,-2.1,29.64,North,355,2.0,5.0,18,0.00,,---,0.00,VWS V14.01,2013-03-18 22:18:00,
2013-03-18 16:19:00,37.6,-2.1,29.64,North,355,0.0,0.0,18,0.00,,---,0.00,VWS V14.01,2013-03-18 22:19:00,
2013-03-18 16:20:00,37.7,-0.8,29.64,North,355,2.0,2.0,19,0.00,,---,0.00,VWS V14.01,2013-03-18 22:20:00,
2013-03-18 16:23:00,37.8,-1.9,29.63,South,180,6.0,6.0,18,0.00,,---,0.00,VWS V14.01,2013-03-18 22:23:00,
2013-03-18 16:24:00,37.8,-1.9,29.63,SSW,196,8.0,9.0,18,0.00,,---,0.00,VWS V14.01,2013-03-18 22:24:00,
2013-03-18 16:26:00,37.9,-1.8,29.63,SSW,194,6.0,7.0,18,0.00,,---,0.00,VWS V14.01,2013-03-18 22:26:00,
2013-03-18 16:28:00,38.0,-1.7,29.64,SSW,192,4.0,6.0,18,0.00,,---,0.00,VWS V14.01,2013-03-18 22:28:00,
2013-03-18 16:29:00,38.0,-1.7,29.64,South,180,7.0,8.0,18,0.00,,---,0.00,VWS V14.01,2013-03-18 22:29:00,
2013-03-18 16:31:00,37.9,-0.7,29.64,SW,223,7.0,9.0,19,0.00,,---,0.00,VWS V14.01,2013-03-18 22:31:00,
2013-03-18 16:33:00,37.9,0.4,29.64,South,181,7.0,7.0,20,0.00,,---,0.00,VWS V14.01,2013-03-18 22:33:00,
2013-03-18 16:34:00,37.8,0.3,29.64,South,178,10.0,11.0,20,0.00,,---,0.00,VWS V14.01,2013-03-18 22:34:00,
2013-03-18 16:36:00,37.8,-0.8,29.64,South,177,7.0,8.0,19,0.00,,---,0.00,VWS V14.01,2013-03-18 22:36:00,
2013-03-18 16:38:00,37.8,0.3,29.64,SSW,192,7.0,9.0,20,0.00,,---,0.00,VWS V14.01,2013-03-18 22:38:00,
2013-03-18 16:39:00,37.9,0.4,29.64,SSW,194,5.0,8.0,20,0.00,,---,0.00,VWS V14.01,2013-03-18 22:39:00,
2013-03-18 16:41:00,38.0,0.5,29.64,SSW,205,5.0,6.0,20,0.00,,---,0.00,VWS V14.01,2013-03-18 22:41:00,
2013-03-18 16:43:00,38.2,1.7,29.65,SSE,158,6.0,7.0,21,0.00,,---,0.00,VWS V14.01,2013-03-18 22:43:00,
2013-03-18 16:44:00,38.1,1.6,29.64,South,180,6.0,9.0,21,0.00,,---,0.00,VWS V14.01,2013-03-18 22:44:00,
2013-03-18 16:46:00,38.2,2.7,29.64,SSE,165,7.0,7.0,22,0.00,,---,0.00,VWS V14.01,2013-03-18 22:46:00,
2013-03-18 16:48:00,38.6,1.0,29.65,South,177,5.0,6.0,20,0.00,,---,0.00,VWS V14.01,2013-03-18 22:48:00,
2013-03-18 16:49:00,38.8,1.2,29.65,South,173,9.0,9.0,20,0.00,,---,0.00,VWS V14.01,2013-03-18 22:49:00,
2013-03-18 16:52:00,38.8,1.2,29.65,SW,215,5.0,7.0,20,0.00,,---,0.00,VWS V14.01,2013-03-18 22:52:00,
2013-03-18 16:53:00,39.1,0.3,29.64,SSW,203,8.0,9.0,19,0.00,,---,0.00,VWS V14.01,2013-03-18 22:53:00,
2013-03-18 16:54:00,39.1,0.3,29.64,South,169,7.0,8.0,19,0.00,,---,0.00,VWS V14.01,2013-03-18 22:54:00,
2013-03-18 16:57:00,39.1,1.4,29.64,SSE,161,1.0,2.0,20,0.00,,---,0.00,VWS V14.01,2013-03-18 22:57:00,
2013-03-18 16:58:00,38.9,1.3,29.64,SSE,155,6.0,10.0,20,0.00,,---,0.00,VWS V14.01,2013-03-18 22:58:00,
2013-03-18 16:59:00,38.9,1.3,29.64,SSE,153,6.0,7.0,20,0.00,,---,0.00,VWS V14.01,2013-03-18 22:59:00,
2013-03-18 17:02:00,38.6,-0.1,29.64,South,183,5.0,5.0,19,0.00,,---,0.00,VWS V14.01,2013-03-18 23:02:00,
2013-03-18 17:04:00,38.7,0.0,29.64,SSW,202,5.0,7.0,19,0.00,,---,0.00,VWS V14.01,2013-03-18 23:04:00,
2013-03-18 17:07:00,38.9,0.2,29.65,SW,216,6.0,7.0,19,0.00,,---,0.00,VWS V14.01,2013-03-18 23:07:00,
2013-03-18 17:09:00,39.0,0.2,29.64,SSE,157,7.0,14.0,19,0.00,,---,0.00,VWS V14.01,2013-03-18 23:09:00,
2013-03-18 17:12:00,38.8,1.2,29.64,SW,214,5.0,7.0,20,0.00,,---,0.00,VWS V14.01,2013-03-18 23:12:00,
2013-03-18 17:14:00,38.9,1.3,29.64,SW,219,1.0,1.0,20,0.00,,---,0.00,VWS V14.01,2013-03-18 23:14:00,
2013-03-18 17:15:00,39.0,2.4,29.64,SW,219,0.0,1.0,21,0.00,,---,0.00,VWS V14.01,2013-03-18 23:15:00,
2013-03-18 17:17:00,39.2,1.5,29.64,WSW,248,5.0,14.0,20,0.00,,---,0.00,VWS V14.01,2013-03-18 23:17:00,
2013-03-18 17:19:00,39.3,1.6,29.64,WSW,238,6.0,9.0,20,0.00,,---,0.00,VWS V14.01,2013-03-18 23:19:00,
2013-03-18 17:20:00,39.3,1.6,29.64,West,279,3.0,9.0,20,0.00,,---,0.00,VWS V14.01,2013-03-18 23:20:00,
2013-03-18 17:22:00,39.2,0.4,29.65,West,269,9.0,9.0,19,0.00,,---,0.00,VWS V14.01,2013-03-18 23:22:00,
2013-03-18 17:24:00,39.1,0.3,29.64,SSE,166,4.0,4.0,19,0.00,,---,0.00,VWS V14.01,2013-03-18 23:24:00,
2013-03-18 17:25:00,39.0,1.3,29.64,SSW,202,6.0,6.0,20,0.00,,---,0.00,VWS V14.01,2013-03-18 23:25:00,
2013-03-18 17:28:00,39.0,1.3,29.64,SSW,192,2.0,5.0,20,0.00,,---,0.00,VWS V14.01,2013-03-18 23:28:00,
2013-03-18 17:29:00,39.1,1.4,29.64,SSE,151,7.0,8.0,20,0.00,,---,0.00,VWS V14.01,2013-03-18 23:29:00,
2013-03-18 17:30:00,39.1,1.4,29.64,South,180,5.0,9.0,20,0.00,,---,0.00,VWS V14.01,2013-03-18 23:30:00,
2013-03-18 17:31:00,38.9,0.2,29.64,SSE,164,5.0,7.0,19,0.00,,---,0.00,VWS V14.01,2013-03-18 23:31:00,
2013-03-18 17:33:00,38.8,1.2,29.64,WSW,256,5.0,5.0,20,0.00,,---,0.00,VWS V14.01,2013-03-18 23:33:00,
2013-03-18 17:34:00,38.8,2.2,29.64,WSW,254,0.0,2.0,21,0.00,,---,0.00,VWS V14.01,2013-03-18 23:34:00,
2013-03-18 17:35:00,38.9,3.3,29.64,West,263,2.0,2.0,22,0.00,,---,0.00,VWS V14.01,2013-03-18 23:35:00,
2013-03-18 17:36:00,38.9,3.3,29.65,West,279,1.0,4.0,22,0.00,,---,0.00,VWS V14.01,2013-03-18 23:36:00,
2013-03-18 17:38:00,38.9,2.3,29.65,WSW,254,2.0,7.0,21,0.00,,---,0.00,VWS V14.01,2013-03-18 23:38:00,
2013-03-18 17:39:00,38.9,4.3,29.64,NNW,348,2.0,8.0,23,0.00,,---,0.00,VWS V14.01,2013-03-18 23:39:00,
2013-03-18 17:40:00,38.9,5.2,29.64,NNW,338,3.0,5.0,24,0.00,,---,0.00,VWS V14.01,2013-03-18 23:40:00,
2013-03-18 17:42:00,38.8,5.1,29.64,South,171,6.0,6.0,24,0.00,,---,0.00,VWS V14.01,2013-03-18 23:42:00,
2013-03-18 17:43:00,38.7,5.0,29.64,SW,226,0.0,2.0,24,0.00,,---,0.00,VWS V14.01,2013-03-18 23:43:00,
2013-03-18 17:45:00,38.7,4.1,29.64,South,182,0.0,2.0,23,0.00,,---,0.00,VWS V14.01,2013-03-18 23:45:00,
2013-03-18 17:47:00,38.4,1.9,29.65,South,183,4.0,4.0,21,0.00,,---,0.00,VWS V14.01,2013-03-18 23:47:00,
2013-03-18 17:48:00,38.3,1.8,29.65,South,187,0.0,1.0,21,0.00,,---,0.00,VWS V14.01,2013-03-18 23:48:00,
2013-03-18 17:50:00,38.1,2.6,29.64,South,169,2.0,2.0,22,0.00,,---,0.00,VWS V14.01,2013-03-18 23:50:00,
2013-03-18 17:51:00,38.0,1.5,29.64,South,169,0.0,2.0,21,0.00,,---,0.00,VWS V14.01,2013-03-18 23:51:00,
2013-03-18 17:52:00,37.9,1.5,29.64,South,169,2.0,2.0,21,0.00,,---,0.00,VWS V14.01,2013-03-18 23:52:00,
2013-03-18 17:53:00,37.7,1.3,29.64,South,169,4.0,4.0,21,0.00,,---,0.00,VWS V14.01,2013-03-18 23:53:00,
2013-03-18 17:55:00,37.4,2.0,29.64,SSE,154,3.0,4.0,22,0.00,,---,0.00,VWS V14.01,2013-03-18 23:55:00,
2013-03-18 17:56:00,37.3,1.0,29.64,SSE,154,1.0,2.0,21,0.00,,---,0.00,VWS V14.01,2013-03-18 23:56:00,
2013-03-18 17:57:00,37.1,0.8,29.64,SSE,154,5.0,5.0,21,0.00,,---,0.00,VWS V14.01,2013-03-18 23:57:00,
2013-03-18 17:58:00,36.9,0.6,29.64,South,186,6.0,6.0,21,0.00,,---,0.00,VWS V14.01,2013-03-18 23:58:00,
2013-03-18 18:01:00,36.7,0.4,29.64,SSE,162,2.0,4.0,21,0.00,,---,0.00,VWS V14.01,2013-03-19 00:01:00,
2013-03-18 18:02:00,36.6,1.4,29.64,SSE,162,2.0,3.0,22,0.00,,---,0.00,VWS V14.01,2013-03-19 00:02:00,
2013-03-18 18:03:00,36.5,1.3,29.64,SSE,162,4.0,4.0,22,0.00,,---,0.00,VWS V14.01,2013-03-19 00:03:00,
2013-03-18 18:06:00,36.5,1.3,29.64,SSW,196,5.0,6.0,22,0.00,,---,0.00,VWS V14.01,2013-03-19 00:06:00,
2013-03-18 18:07:00,36.5,1.3,29.64,South,169,5.0,5.0,22,0.00,,---,0.00,VWS V14.01,2013-03-19 00:07:00,
2013-03-18 18:08:00,36.4,2.2,29.64,South,177,6.0,8.0,23,0.00,,---,0.00,VWS V14.01,2013-03-19 00:08:00,
2013-03-18 18:11:00,36.3,1.1,29.64,South,169,7.0,7.0,22,0.00,,---,0.00,VWS V14.01,2013-03-19 00:11:00,
2013-03-18 18:12:00,36.2,2.0,29.64,South,183,5.0,6.0,23,0.00,,---,0.00,VWS V14.01,2013-03-19 00:12:00,
2013-03-18 18:13:00,36.2,1.0,29.64,South,170,8.0,9.0,22,0.00,,---,0.00,VWS V14.01,2013-03-19 00:13:00,
2013-03-18 18:16:00,36.1,1.9,29.65,South,169,7.0,7.0,23,0.00,,---,0.00,VWS V14.01,2013-03-19 00:16:00,
2013-03-18 18:17:00,36.1,0.9,29.65,SSE,156,6.0,9.0,22,0.00,,---,0.00,VWS V14.01,2013-03-19 00:17:00,
2013-03-18 18:18:00,35.9,0.8,29.65,South,169,7.0,12.0,22,0.00,,---,0.00,VWS V14.01,2013-03-19 00:18:00,
2013-03-18 18:21:00,35.7,0.6,29.65,SSE,168,7.0,8.0,22,0.00,,---,0.00,VWS V14.01,2013-03-19 00:21:00,
2013-03-18 18:22:00,35.7,0.6,29.64,South,171,9.0,11.0,22,0.00,,---,0.00,VWS V14.01,2013-03-19 00:22:00,
2013-03-18 18:24:00,35.5,0.4,29.64,SSE,159,10.0,10.0,22,0.00,,---,0.00,VWS V14.01,2013-03-19 00:24:00,
2013-03-18 18:26:00,35.4,0.3,29.64,SSE,165,6.0,11.0,22,0.00,,---,0.00,VWS V14.01,2013-03-19 00:26:00,
2013-03-18 18:27:00,35.3,1.2,29.64,SSE,165,8.0,8.0,23,0.00,,---,0.00,VWS V14.01,2013-03-19 00:27:00,
2013-03-18 18:28:00,35.3,1.2,29.64,SSE,159,7.0,8.0,23,0.00,,---,0.00,VWS V14.01,2013-03-19 00:28:00,
2013-03-18 18:29:00,35.2,0.2,29.65,South,172,5.0,8.0,22,0.00,,---,0.00,VWS V14.01,2013-03-19 00:29:00,
2013-03-18 18:32:00,35.1,0.1,29.65,South,174,8.0,8.0,22,0.00,,---,0.00,VWS V14.01,2013-03-19 00:32:00,
2013-03-18 18:33:00,35.1,0.1,29.65,South,171,6.0,6.0,22,0.00,,---,0.00,VWS V14.01,2013-03-19 00:33:00,
2013-03-18 18:34:00,35.0,0.0,29.65,SSE,157,5.0,7.0,22,0.00,,---,0.00,VWS V14.01,2013-03-19 00:34:00,
2013-03-18 18:37:00,35.0,2.8,29.65,South,170,9.0,9.0,25,0.00,,---,0.00,VWS V14.01,2013-03-19 00:37:00,
2013-03-18 18:38:00,34.9,0.9,29.65,South,171,5.0,5.0,23,0.00,,---,0.00,VWS V14.01,2013-03-19 00:38:00,
2013-03-18 18:39:00,34.8,1.7,29.65,South,172,7.0,8.0,24,0.00,,---,0.00,VWS V14.01,2013-03-19 00:39:00,
2013-03-18 18:42:00,34.6,1.5,29.65,SSE,166,6.0,7.0,24,0.00,,---,0.00,VWS V14.01,2013-03-19 00:42:00,
2013-03-18 18:43:00,34.5,2.3,29.65,South,173,6.0,6.0,25,0.00,,---,0.00,VWS V14.01,2013-03-19 00:43:00,
2013-03-18 18:44:00,34.4,2.2,29.65,SSE,167,8.0,8.0,25,0.00,,---,0.00,VWS V14.01,2013-03-19 00:44:00,
2013-03-18 18:47:00,34.4,2.2,29.66,SE,146,7.0,7.0,25,0.00,,---,0.00,VWS V14.01,2013-03-19 00:47:00,
2013-03-18 18:48:00,34.3,2.2,29.66,SE,142,4.0,5.0,25,0.00,,---,0.00,VWS V14.01,2013-03-19 00:48:00,
2013-03-18 18:49:00,34.1,2.0,29.66,SE,146,7.0,9.0,25,0.00,,---,0.00,VWS V14.01,2013-03-19 00:49:00,
2013-03-18 18:52:00,34.0,1.0,29.66,SSE,163,5.0,7.0,24,0.00,,---,0.00,VWS V14.01,2013-03-19 00:52:00,
2013-03-18 18:53:00,34.0,1.0,29.66,SSE,159,4.0,6.0,24,0.00,,---,0.00,VWS V14.01,2013-03-19 00:53:00,
2013-03-18 18:54:00,33.9,1.8,29.66,SSE,154,6.0,7.0,25,0.00,,---,0.00,VWS V14.01,2013-03-19 00:54:00,
2013-03-18 18:58:00,33.5,1.5,29.66,SE,146,5.0,6.0,25,0.00,,---,0.00,VWS V14.01,2013-03-19 00:58:00,
2013-03-18 18:59:00,33.4,2.2,29.66,SSE,150,4.0,7.0,26,0.00,,---,0.00,VWS V14.01,2013-03-19 00:59:00,
2013-03-18 19:03:00,33.1,2.0,29.66,SSE,147,5.0,6.0,26,0.00,,---,0.00,VWS V14.01,2013-03-19 01:03:00,
2013-03-18 19:05:00,33.0,1.9,29.66,SSE,149,9.0,9.0,26,0.00,,---,0.00,VWS V14.01,2013-03-19 01:05:00,
2013-03-18 19:08:00,32.8,1.7,29.66,SSE,167,5.0,6.0,26,0.00,,---,0.00,VWS V14.01,2013-03-19 01:08:00,
2013-03-18 19:10:00,32.7,2.4,29.66,SSE,162,6.0,7.0,27,0.00,,---,0.00,VWS V14.01,2013-03-19 01:10:00,
2013-03-18 19:13:00,32.7,0.8,29.66,SE,142,5.0,7.0,25,0.00,,---,0.00,VWS V14.01,2013-03-19 01:13:00,
2013-03-18 19:14:00,32.7,0.8,29.66,SSE,157,7.0,9.0,25,0.00,,---,0.00,VWS V14.01,2013-03-19 01:14:00,
2013-03-18 19:16:00,32.8,0.9,29.66,SE,142,4.0,7.0,25,0.00,,---,0.00,VWS V14.01,2013-03-19 01:16:00,
2013-03-18 19:18:00,32.8,1.7,29.67,SE,144,6.0,7.0,26,0.00,,---,0.00,VWS V14.01,2013-03-19 01:18:00,
2013-03-18 19:19:00,32.8,0.9,29.67,SSE,163,6.0,7.0,25,0.00,,---,0.00,VWS V14.01,2013-03-19 01:19:00,
2013-03-18 19:21:00,32.8,1.7,29.67,SSE,154,4.0,6.0,26,0.00,,---,0.00,VWS V14.01,2013-03-19 01:21:00,
2013-03-18 19:23:00,32.8,1.7,29.67,SE,146,4.0,5.0,26,0.00,,---,0.00,VWS V14.01,2013-03-19 01:23:00,
2013-03-18 19:24:00,32.8,1.7,29.67,SE,146,4.0,4.0,26,0.00,,---,0.00,VWS V14.01,2013-03-19 01:24:00,
2013-03-18 19:26:00,32.8,0.9,29.67,SE,146,2.0,4.0,25,0.00,,---,0.00,VWS V14.01,2013-03-19 01:26:00,
2013-03-18 19:28:00,32.7,0.8,29.67,SE,146,1.0,4.0,25,0.00,,---,0.00,VWS V14.01,2013-03-19 01:28:00,
2013-03-18 19:29:00,32.7,1.6,29.67,SE,146,0.0,4.0,26,0.00,,---,0.00,VWS V14.01,2013-03-19 01:29:00,
2013-03-18 19:31:00,32.6,0.7,29.68,SE,146,0.0,0.0,25,0.00,,---,0.00,VWS V14.01,2013-03-19 01:31:00,
2013-03-18 19:33:00,32.6,0.7,29.68,SE,146,0.0,0.0,25,0.00,,---,0.00,VWS V14.01,2013-03-19 01:33:00,
2013-03-18 19:34:00,32.6,0.7,29.68,SE,146,0.0,0.0,25,0.00,,---,0.00,VWS V14.01,2013-03-19 01:34:00,
2013-03-18 19:36:00,32.6,1.5,29.68,SE,146,0.0,0.0,26,0.00,,---,0.00,VWS V14.01,2013-03-19 01:36:00,
2013-03-18 19:39:00,32.5,1.4,29.68,SE,146,0.0,0.0,26,0.00,,---,0.00,VWS V14.01,2013-03-19 01:39:00,
2013-03-18 19:42:00,32.4,1.4,29.68,SE,146,0.0,0.0,26,0.00,,---,0.00,VWS V14.01,2013-03-19 01:42:00,
2013-03-18 19:44:00,32.4,1.4,29.68,SE,146,0.0,0.0,26,0.00,,---,0.00,VWS V14.01,2013-03-19 01:44:00,
2013-03-18 19:47:00,32.3,1.3,29.68,SE,146,0.0,0.0,26,0.00,,---,0.00,VWS V14.01,2013-03-19 01:47:00,
2013-03-18 19:49:00,32.3,3.6,29.68,SE,146,0.0,0.0,29,0.00,,---,0.00,VWS V14.01,2013-03-19 01:49:00,
2013-03-18 19:52:00,32.1,3.4,29.68,SE,146,0.0,0.0,29,0.00,,---,0.00,VWS V14.01,2013-03-19 01:52:00,
2013-03-18 19:54:00,32.1,3.4,29.68,SE,146,0.0,0.0,29,0.00,,---,0.00,VWS V14.01,2013-03-19 01:54:00,
2013-03-18 19:58:00,32.0,4.8,29.68,SE,146,0.0,0.0,31,0.00,,---,0.00,VWS V14.01,2013-03-19 01:58:00,
2013-03-18 19:59:00,31.8,5.3,29.68,SE,146,0.0,0.0,32,0.00,,---,0.00,VWS V14.01,2013-03-19 01:59:00,
2013-03-18 20:03:00,31.5,5.1,29.68,SE,146,0.0,0.0,32,0.00,,---,0.00,VWS V14.01,2013-03-19 02:03:00,
2013-03-18 20:04:00,31.3,4.9,29.68,SE,146,0.0,0.0,32,0.00,,---,0.00,VWS V14.01,2013-03-19 02:04:00,
2013-03-18 20:08:00,31.0,3.9,29.68,SE,146,0.0,0.0,31,0.00,,---,0.00,VWS V14.01,2013-03-19 02:08:00,
2013-03-18 20:09:00,30.9,3.8,29.69,SE,146,0.0,0.0,31,0.00,,---,0.00,VWS V14.01,2013-03-19 02:09:00,
2013-03-18 20:10:00,30.9,3.8,29.69,SE,146,0.0,0.0,31,0.00,,---,0.00,VWS V14.01,2013-03-19 02:10:00,
2013-03-18 20:11:00,30.8,3.8,29.68,SE,146,0.0,0.0,31,0.00,,---,0.00,VWS V14.01,2013-03-19 02:11:00,
2013-03-18 20:13:00,30.8,3.8,29.68,SE,146,0.0,0.0,31,0.00,,---,0.00,VWS V14.01,2013-03-19 02:13:00,
2013-03-18 20:14:00,30.8,3.8,29.68,SE,146,1.0,2.0,31,0.00,,---,0.00,VWS V14.01,2013-03-19 02:14:00,
2013-03-18 20:15:00,30.8,3.8,29.68,SE,146,0.0,2.0,31,0.00,,---,0.00,VWS V14.01,2013-03-19 02:15:00,
2013-03-18 20:16:00,30.8,3.8,29.68,SE,146,0.0,1.0,31,0.00,,---,0.00,VWS V14.01,2013-03-19 02:16:00,
2013-03-18 20:18:00,30.6,4.3,29.68,SE,146,0.0,0.0,32,0.00,,---,0.00,VWS V14.01,2013-03-19 02:18:00,
2013-03-18 20:19:00,30.5,4.8,29.68,SE,146,0.0,1.0,33,0.00,,---,0.00,VWS V14.01,2013-03-19 02:19:00,
2013-03-18 20:20:00,30.5,4.8,29.68,SE,146,0.0,1.0,33,0.00,,---,0.00,VWS V14.01,2013-03-19 02:20:00,
2013-03-18 20:21:00,30.4,4.8,29.68,SE,146,0.0,0.0,33,0.00,,---,0.00,VWS V14.01,2013-03-19 02:21:00,
2013-03-18 20:23:00,30.1,5.1,29.68,SE,146,0.0,0.0,34,0.00,,---,0.00,VWS V14.01,2013-03-19 02:23:00,
2013-03-18 20:25:00,29.8,6.1,29.68,SE,146,2.0,3.0,36,0.00,,---,0.00,VWS V14.01,2013-03-19 02:25:00,
2013-03-18 20:26:00,29.6,5.9,29.68,SE,146,2.0,2.0,36,0.00,,---,0.00,VWS V14.01,2013-03-19 02:26:00,
2013-03-18 20:28:00,29.3,5.7,29.69,SE,146,0.0,2.0,36,0.00,,---,0.00,VWS V14.01,2013-03-19 02:28:00,
2013-03-18 20:30:00,29.2,5.0,29.69,SE,146,0.0,0.0,35,0.00,,---,0.00,VWS V14.01,2013-03-19 02:30:00,
2013-03-18 20:31:00,29.2,5.0,29.69,SE,146,0.0,0.0,35,0.00,,---,0.00,VWS V14.01,2013-03-19 02:31:00,
2013-03-18 20:34:00,29.1,4.9,29.69,SE,146,0.0,0.0,35,0.00,,---,0.00,VWS V14.01,2013-03-19 02:34:00,
2013-03-18 20:35:00,29.1,4.9,29.69,SE,146,0.0,0.0,35,0.00,,---,0.00,VWS V14.01,2013-03-19 02:35:00,
2013-03-18 20:36:00,29.1,4.9,29.69,SE,146,1.0,1.0,35,0.00,,---,0.00,VWS V14.01,2013-03-19 02:36:00,
2013-03-18 20:39:00,28.9,6.5,29.69,SE,146,1.0,4.0,38,0.00,,---,0.00,VWS V14.01,2013-03-19 02:39:00,
2013-03-18 20:41:00,28.7,5.1,29.69,SE,146,3.0,3.0,36,0.00,,---,0.00,VWS V14.01,2013-03-19 02:41:00,
2013-03-18 20:42:00,28.8,4.0,29.69,SE,146,1.0,2.0,34,0.00,,---,0.00,VWS V14.01,2013-03-19 02:42:00,
2013-03-18 20:44:00,28.9,5.3,29.69,SE,146,1.0,4.0,36,0.00,,---,0.00,VWS V14.01,2013-03-19 02:44:00,
2013-03-18 20:46:00,29.1,3.6,29.69,SE,146,0.0,0.0,33,0.00,,---,0.00,VWS V14.01,2013-03-19 02:46:00,
2013-03-18 20:47:00,29.2,3.7,29.69,SE,146,1.0,1.0,33,0.00,,---,0.00,VWS V14.01,2013-03-19 02:47:00,
2013-03-18 20:49:00,29.3,3.8,29.69,SE,146,0.0,0.0,33,0.00,,---,0.00,VWS V14.01,2013-03-19 02:49:00,
2013-03-18 20:51:00,29.4,3.2,29.69,SE,146,0.0,0.0,32,0.00,,---,0.00,VWS V14.01,2013-03-19 02:51:00,
2013-03-18 20:52:00,29.4,3.2,29.69,SE,146,0.0,0.0,32,0.00,,---,0.00,VWS V14.01,2013-03-19 02:52:00,
2013-03-18 20:53:00,29.4,3.2,29.69,SE,146,0.0,0.0,32,0.00,,---,0.00,VWS V14.01,2013-03-19 02:53:00,
2013-03-18 20:54:00,29.5,3.3,29.69,SE,146,0.0,2.0,32,0.00,,---,0.00,VWS V14.01,2013-03-19 02:54:00,
2013-03-18 20:56:00,29.6,3.4,29.69,SE,146,0.0,0.0,32,0.00,,---,0.00,VWS V14.01,2013-03-19 02:56:00,
2013-03-18 20:57:00,29.6,3.4,29.69,SE,146,0.0,0.0,32,0.00,,---,0.00,VWS V14.01,2013-03-19 02:57:00,
2013-03-18 20:58:00,29.6,3.4,29.69,SE,146,0.0,0.0,32,0.00,,---,0.00,VWS V14.01,2013-03-19 02:58:00,
2013-03-18 20:59:00,29.6,4.0,29.69,SE,146,0.0,1.0,33,0.00,,---,0.00,VWS V14.01,2013-03-19 02:59:00,
2013-03-18 21:02:00,29.5,4.0,29.69,SE,146,0.0,3.0,33,0.00,,---,0.00,VWS V14.01,2013-03-19 03:02:00,
2013-03-18 21:03:00,29.5,4.0,29.69,SE,146,0.0,0.0,33,0.00,,---,0.00,VWS V14.01,2013-03-19 03:03:00,
2013-03-18 21:04:00,29.5,4.0,29.69,SE,146,0.0,0.0,33,0.00,,---,0.00,VWS V14.01,2013-03-19 03:04:00,
2013-03-18 21:07:00,29.4,4.5,29.70,SE,146,0.0,0.0,34,0.00,,---,0.00,VWS V14.01,2013-03-19 03:07:00,
2013-03-18 21:08:00,29.3,4.4,29.70,SE,146,1.0,3.0,34,0.00,,---,0.00,VWS V14.01,2013-03-19 03:08:00,
2013-03-18 21:09:00,29.3,5.1,29.70,SE,146,0.0,0.0,35,0.00,,---,0.00,VWS V14.01,2013-03-19 03:09:00,
2013-03-18 21:12:00,29.1,5.5,29.70,SE,146,0.0,0.0,36,0.00,,---,0.00,VWS V14.01,2013-03-19 03:12:00,
2013-03-18 21:13:00,29.0,6.0,29.70,SE,146,0.0,0.0,37,0.00,,---,0.00,VWS V14.01,2013-03-19 03:13:00,
2013-03-18 21:14:00,29.0,6.0,29.70,SE,146,1.0,2.0,37,0.00,,---,0.00,VWS V14.01,2013-03-19 03:14:00,
2013-03-18 21:17:00,28.9,5.3,29.71,SE,146,0.0,0.0,36,0.00,,---,0.00,VWS V14.01,2013-03-19 03:17:00,
2013-03-18 21:18:00,28.9,5.3,29.70,SE,146,0.0,0.0,36,0.00,,---,0.00,VWS V14.01,2013-03-19 03:18:00,
2013-03-18 21:19:00,28.8,5.2,29.70,SE,146,0.0,0.0,36,0.00,,---,0.00,VWS V14.01,2013-03-19 03:19:00,
2013-03-18 21:22:00,28.8,5.2,29.71,SE,146,0.0,0.0,36,0.00,,---,0.00,VWS V14.01,2013-03-19 03:22:00,
2013-03-18 21:23:00,28.8,5.8,29.71,SE,146,0.0,0.0,37,0.00,,---,0.00,VWS V14.01,2013-03-19 03:23:00,
2013-03-18 21:24:00,28.8,5.2,29.70,SE,146,0.0,0.0,36,0.00,,---,0.00,VWS V14.01,2013-03-19 03:24:00,
2013-03-18 21:28:00,28.7,5.1,29.70,SE,146,0.0,0.0,36,0.00,,---,0.00,VWS V14.01,2013-03-19 03:28:00,
2013-03-18 21:29:00,28.7,5.1,29.70,SE,146,0.0,0.0,36,0.00,,---,0.00,VWS V14.01,2013-03-19 03:29:00,
2013-03-18 21:33:00,28.8,5.2,29.70,SE,146,0.0,0.0,36,0.00,,---,0.00,VWS V14.01,2013-03-19 03:33:00,
2013-03-18 21:34:00,28.9,5.3,29.70,SE,146,0.0,0.0,36,0.00,,---,0.00,VWS V14.01,2013-03-19 03:34:00,
2013-03-18 21:38:00,29.0,5.4,29.70,SE,146,0.0,0.0,36,0.00,,---,0.00,VWS V14.01,2013-03-19 03:38:00,
2013-03-18 21:39:00,28.9,5.3,29.70,SE,146,0.0,0.0,36,0.00,,---,0.00,VWS V14.01,2013-03-19 03:39:00,
2013-03-18 21:43:00,29.0,4.8,29.70,SE,146,0.0,0.0,35,0.00,,---,0.00,VWS V14.01,2013-03-19 03:43:00,
2013-03-18 21:44:00,29.0,5.4,29.70,SE,146,0.0,0.0,36,0.00,,---,0.00,VWS V14.01,2013-03-19 03:44:00,
2013-03-18 21:48:00,28.9,5.3,29.70,SE,146,0.0,0.0,36,0.00,,---,0.00,VWS V14.01,2013-03-19 03:48:00,
2013-03-18 21:49:00,28.9,5.3,29.70,SE,146,3.0,4.0,36,0.00,,---,0.00,VWS V14.01,2013-03-19 03:49:00,
2013-03-18 21:53:00,28.9,5.9,29.70,SE,146,0.0,0.0,37,0.00,,---,0.00,VWS V14.01,2013-03-19 03:53:00,
2013-03-18 21:54:00,28.9,6.5,29.70,SE,146,0.0,0.0,38,0.00,,---,0.00,VWS V14.01,2013-03-19 03:54:00,
2013-03-18 21:56:00,28.8,7.0,29.70,SE,146,0.0,0.0,39,0.00,,---,0.00,VWS V14.01,2013-03-19 03:56:00,
2013-03-18 21:59:00,27.9,7.3,29.70,SE,146,2.0,4.0,41,0.00,,---,0.00,VWS V14.01,2013-03-19 03:59:00,
2013-03-18 22:00:00,27.9,7.3,29.70,SE,146,2.0,4.0,41,0.00,,---,0.00,VWS V14.01,2013-03-19 04:00:00,
2013-03-18 22:01:00,27.6,6.4,29.70,SE,146,0.0,0.0,40,0.00,,---,0.00,VWS V14.01,2013-03-19 04:01:00,
2013-03-18 22:02:00,27.6,6.4,29.70,SE,146,0.0,0.0,40,0.00,,---,0.00,VWS V14.01,2013-03-19 04:02:00,
2013-03-18 22:05:00,27.5,6.4,29.70,SE,146,2.0,2.0,40,0.00,,---,0.00,VWS V14.01,2013-03-19 04:05:00,
2013-03-18 22:07:00,27.5,7.4,29.70,SE,146,4.0,5.0,42,0.00,,---,0.00,VWS V14.01,2013-03-19 04:07:00,
2013-03-18 22:11:00,27.6,7.0,29.70,SSE,167,5.0,6.0,41,0.00,,---,0.00,VWS V14.01,2013-03-19 04:11:00,
2013-03-18 22:12:00,27.8,7.2,29.70,SSE,167,2.0,4.0,41,0.00,,---,0.00,VWS V14.01,2013-03-19 04:12:00,
2013-03-18 22:13:00,27.9,7.3,29.70,SSE,167,2.0,3.0,41,0.00,,---,0.00,VWS V14.01,2013-03-19 04:13:00,
2013-03-18 22:16:00,28.0,6.8,29.70,SSE,167,0.0,0.0,40,0.00,,---,0.00,VWS V14.01,2013-03-19 04:16:00,
2013-03-18 22:17:00,28.1,6.9,29.70,SSE,167,0.0,0.0,40,0.00,,---,0.00,VWS V14.01,2013-03-19 04:17:00,
2013-03-18 22:18:00,28.1,6.9,29.70,SSE,167,0.0,0.0,40,0.00,,---,0.00,VWS V14.01,2013-03-19 04:18:00,
2013-03-18 22:21:00,28.3,6.5,29.70,SSE,167,0.0,0.0,39,0.00,,---,0.00,VWS V14.01,2013-03-19 04:21:00,
2013-03-18 22:22:00,28.3,6.5,29.70,SSE,167,0.0,0.0,39,0.00,,---,0.00,VWS V14.01,2013-03-19 04:22:00,
2013-03-18 22:23:00,28.3,6.5,29.71,SSE,167,0.0,0.0,39,0.00,,---,0.00,VWS V14.01,2013-03-19 04:23:00,
2013-03-18 22:26:00,28.5,6.1,29.70,SSE,167,0.0,0.0,38,0.00,,---,0.00,VWS V14.01,2013-03-19 04:26:00,
2013-03-18 22:27:00,28.5,6.1,29.70,SSE,167,0.0,0.0,38,0.00,,---,0.00,VWS V14.01,2013-03-19 04:27:00,
2013-03-18 22:28:00,28.5,6.1,29.70,SSE,167,0.0,0.0,38,0.00,,---,0.00,VWS V14.01,2013-03-19 04:28:00,
2013-03-18 22:32:00,28.7,6.3,29.70,SSE,167,1.0,3.0,38,0.00,,---,0.00,VWS V14.01,2013-03-19 04:32:00,
2013-03-18 22:33:00,28.7,6.3,29.70,SSE,167,4.0,4.0,38,0.00,,---,0.00,VWS V14.01,2013-03-19 04:33:00,
2013-03-18 22:37:00,28.8,6.4,29.70,SSE,167,3.0,5.0,38,0.00,,---,0.00,VWS V14.01,2013-03-19 04:37:00,
2013-03-18 22:38:00,28.8,6.4,29.70,SSE,167,4.0,5.0,38,0.00,,---,0.00,VWS V14.01,2013-03-19 04:38:00,
2013-03-18 22:42:00,28.8,7.0,29.70,SSE,167,0.0,0.0,39,0.00,,---,0.00,VWS V14.01,2013-03-19 04:42:00,
2013-03-18 22:43:00,28.7,7.4,29.70,SSE,167,0.0,0.0,40,0.00,,---,0.00,VWS V14.01,2013-03-19 04:43:00,
2013-03-18 22:47:00,28.1,6.9,29.70,SSE,167,0.0,0.0,40,0.00,,---,0.00,VWS V14.01,2013-03-19 04:47:00,
2013-03-18 22:48:00,28.1,6.9,29.70,SSE,167,0.0,1.0,40,0.00,,---,0.00,VWS V14.01,2013-03-19 04:48:00,
2013-03-18 22:52:00,27.8,7.2,29.70,SSE,167,0.0,0.0,41,0.00,,---,0.00,VWS V14.01,2013-03-19 04:52:00,
2013-03-18 22:53:00,27.7,7.1,29.70,SSE,167,0.0,0.0,41,0.00,,---,0.00,VWS V14.01,2013-03-19 04:53:00,
2013-03-18 22:57:00,27.4,7.9,29.70,SSE,167,0.0,0.0,43,0.00,,---,0.00,VWS V14.01,2013-03-19 04:57:00,
2013-03-18 22:58:00,27.4,7.9,29.70,SSE,167,0.0,0.0,43,0.00,,---,0.00,VWS V14.01,2013-03-19 04:58:00,
2013-03-18 23:02:00,27.2,6.6,29.70,SSE,167,2.0,3.0,41,0.00,,---,0.00,VWS V14.01,2013-03-19 05:02:00,
2013-03-18 23:03:00,27.2,6.6,29.70,SSE,167,1.0,4.0,41,0.00,,---,0.00,VWS V14.01,2013-03-19 05:03:00,
2013-03-18 23:07:00,27.6,7.0,29.71,SSE,167,0.0,1.0,41,0.00,,---,0.00,VWS V14.01,2013-03-19 05:07:00,
2013-03-18 23:08:00,27.6,7.0,29.70,SSE,167,0.0,0.0,41,0.00,,---,0.00,VWS V14.01,2013-03-19 05:08:00,
2013-03-18 23:13:00,27.7,7.1,29.71,SSE,167,0.0,0.0,41,0.00,,---,0.00,VWS V14.01,2013-03-19 05:13:00,
2013-03-18 23:18:00,27.3,8.3,29.71,SSE,167,0.0,0.0,44,0.00,,---,0.00,VWS V14.01,2013-03-19 05:18:00,
2013-03-18 23:23:00,26.6,8.1,29.71,SSE,167,0.0,0.0,45,0.00,,---,0.00,VWS V14.01,2013-03-19 05:23:00,
2013-03-18 23:28:00,26.6,7.1,29.70,SSE,167,0.0,0.0,43,0.00,,---,0.00,VWS V14.01,2013-03-19 05:28:00,
2013-03-18 23:29:00,26.6,7.1,29.70,SSE,167,0.0,0.0,43,0.00,,---,0.00,VWS V14.01,2013-03-19 05:29:00,
2013-03-18 23:33:00,26.9,7.9,29.70,SSE,167,0.0,0.0,44,0.00,,---,0.00,VWS V14.01,2013-03-19 05:33:00,
2013-03-18 23:34:00,26.9,7.9,29.70,SSE,167,0.0,0.0,44,0.00,,---,0.00,VWS V14.01,2013-03-19 05:34:00,
2013-03-18 23:38:00,26.7,9.2,29.70,SSE,167,0.0,0.0,47,0.00,,---,0.00,VWS V14.01,2013-03-19 05:38:00,
2013-03-18 23:39:00,26.7,8.2,29.70,SSE,167,0.0,0.0,45,0.00,,---,0.00,VWS V14.01,2013-03-19 05:39:00,
2013-03-18 23:43:00,26.6,7.1,29.70,SSE,167,0.0,0.0,43,0.00,,---,0.00,VWS V14.01,2013-03-19 05:43:00,
2013-03-18 23:44:00,26.6,7.1,29.70,SSE,167,0.0,0.0,43,0.00,,---,0.00,VWS V14.01,2013-03-19 05:44:00,
2013-03-18 23:48:00,26.9,7.9,29.69,SSE,167,2.0,2.0,44,0.00,,---,0.00,VWS V14.01,2013-03-19 05:48:00,
2013-03-18 23:49:00,26.9,7.9,29.69,SSE,167,1.0,1.0,44,0.00,,---,0.00,VWS V14.01,2013-03-19 05:49:00,
2013-03-18 23:53:00,26.8,7.8,29.69,SSE,167,2.0,2.0,44,0.00,,---,0.00,VWS V14.01,2013-03-19 05:53:00,
2013-03-18 23:54:00,26.8,7.8,29.69,SSE,167,1.0,2.0,44,0.00,,---,0.00,VWS V14.01,2013-03-19 05:54:00,
2013-03-18 23:58:00,26.8,7.8,29.69,SSE,167,0.0,0.0,44,0.00,,---,0.00,VWS V14.01,2013-03-19 05:58:00,
2013-03-18 23:59:00,26.7,7.7,29.69,SSE,167,0.0,0.0,44,0.00,,---,0.00,VWS V14.01,2013-03-19 05:59:00,